<?xml version="1.0" encoding="UTF-8"?>
<gpx version="1.1" creator="2bulu-scraper" xmlns="http://www.topografix.com/GPX/1/1">
  <metadata><name>宜宾兴文僰王山</name><desc>source: 2bulu.com trackId=87488811; exported 2026-08-30T14:29:14.037Z</desc></metadata>

  <trk><name>宜宾兴文僰王山</name>
      <trkseg>
        <trkpt lat="28.3119923" lon="105.049408"><ele>820.77</ele><time>2026-07-23T21:08:41.000Z</time></trkpt>
        <trkpt lat="28.3119852" lon="105.0495099"><ele>820.77</ele><time>2026-07-23T21:08:45.000Z</time></trkpt>
        <trkpt lat="28.3120201" lon="105.0494532"><ele>817.84</ele><time>2026-07-23T21:09:05.000Z</time></trkpt>
        <trkpt lat="28.3120316" lon="105.0493487"><ele>814.32</ele><time>2026-07-23T21:09:15.000Z</time></trkpt>
        <trkpt lat="28.3121001" lon="105.0493594"><ele>810.66</ele><time>2026-07-23T21:09:29.000Z</time></trkpt>
        <trkpt lat="28.3121818" lon="105.0494285"><ele>807.68</ele><time>2026-07-23T21:09:39.000Z</time></trkpt>
        <trkpt lat="28.3122686" lon="105.0495001"><ele>806.86</ele><time>2026-07-23T21:09:49.000Z</time></trkpt>
        <trkpt lat="28.3123677" lon="105.0495236"><ele>807.03</ele><time>2026-07-23T21:09:59.000Z</time></trkpt>
        <trkpt lat="28.3124718" lon="105.0495014"><ele>807.14</ele><time>2026-07-23T21:10:09.000Z</time></trkpt>
        <trkpt lat="28.312502" lon="105.0494105"><ele>804.8</ele><time>2026-07-23T21:10:19.000Z</time></trkpt>
        <trkpt lat="28.3125034" lon="105.0492852"><ele>802.87</ele><time>2026-07-23T21:10:31.000Z</time></trkpt>
        <trkpt lat="28.3125634" lon="105.0492067"><ele>801.31</ele><time>2026-07-23T21:10:47.000Z</time></trkpt>
        <trkpt lat="28.3126501" lon="105.0492177"><ele>797.69</ele><time>2026-07-23T21:10:59.000Z</time></trkpt>
        <trkpt lat="28.3127272" lon="105.0493026"><ele>793.88</ele><time>2026-07-23T21:11:09.000Z</time></trkpt>
        <trkpt lat="28.312787" lon="105.0494069"><ele>790.54</ele><time>2026-07-23T21:11:21.000Z</time></trkpt>
        <trkpt lat="28.3128498" lon="105.0495042"><ele>787.95</ele><time>2026-07-23T21:11:29.000Z</time></trkpt>
        <trkpt lat="28.3129389" lon="105.0495611"><ele>786.4</ele><time>2026-07-23T21:11:39.000Z</time></trkpt>
        <trkpt lat="28.3130057" lon="105.0496422"><ele>786.01</ele><time>2026-07-23T21:11:49.000Z</time></trkpt>
        <trkpt lat="28.3130993" lon="105.0496541"><ele>785.81</ele><time>2026-07-23T21:11:59.000Z</time></trkpt>
        <trkpt lat="28.3131886" lon="105.0496162"><ele>784.01</ele><time>2026-07-23T21:12:07.000Z</time></trkpt>
        <trkpt lat="28.313205" lon="105.0495534"><ele>783.56</ele><time>2026-07-23T21:12:15.000Z</time></trkpt>
        <trkpt lat="28.3131479" lon="105.0494688"><ele>783.42</ele><time>2026-07-23T21:12:29.000Z</time></trkpt>
        <trkpt lat="28.3131968" lon="105.0494322"><ele>784.8</ele><time>2026-07-23T21:12:53.000Z</time></trkpt>
        <trkpt lat="28.3132847" lon="105.0494318"><ele>786.04</ele><time>2026-07-23T21:13:09.000Z</time></trkpt>
        <trkpt lat="28.3133839" lon="105.0494924"><ele>785.14</ele><time>2026-07-23T21:13:19.000Z</time></trkpt>
        <trkpt lat="28.3134801" lon="105.0495376"><ele>785.87</ele><time>2026-07-23T21:13:29.000Z</time></trkpt>
        <trkpt lat="28.313574" lon="105.0495311"><ele>787.17</ele><time>2026-07-23T21:13:39.000Z</time></trkpt>
        <trkpt lat="28.3136685" lon="105.0495087"><ele>787.18</ele><time>2026-07-23T21:13:51.000Z</time></trkpt>
        <trkpt lat="28.3137732" lon="105.0494855"><ele>786.86</ele><time>2026-07-23T21:14:03.000Z</time></trkpt>
        <trkpt lat="28.3138729" lon="105.0494588"><ele>786.01</ele><time>2026-07-23T21:14:13.000Z</time></trkpt>
        <trkpt lat="28.3139743" lon="105.0494056"><ele>785.77</ele><time>2026-07-23T21:14:23.000Z</time></trkpt>
        <trkpt lat="28.3140618" lon="105.0493267"><ele>783.26</ele><time>2026-07-23T21:14:31.000Z</time></trkpt>
        <trkpt lat="28.3141461" lon="105.0492679"><ele>781.68</ele><time>2026-07-23T21:14:43.000Z</time></trkpt>
        <trkpt lat="28.3142105" lon="105.0493114"><ele>778.26</ele><time>2026-07-23T21:15:07.000Z</time></trkpt>
        <trkpt lat="28.3141902" lon="105.0494076"><ele>774.9</ele><time>2026-07-23T21:15:23.000Z</time></trkpt>
        <trkpt lat="28.3141537" lon="105.0494441"><ele>774.73</ele><time>2026-07-23T21:15:29.000Z</time></trkpt>
        <trkpt lat="28.3142204" lon="105.0494312"><ele>776.25</ele><time>2026-07-23T21:15:51.000Z</time></trkpt>
        <trkpt lat="28.3143173" lon="105.0494156"><ele>771.4</ele><time>2026-07-23T21:15:59.000Z</time></trkpt>
        <trkpt lat="28.31442" lon="105.0494192"><ele>764.08</ele><time>2026-07-23T21:16:11.000Z</time></trkpt>
        <trkpt lat="28.3145235" lon="105.0494065"><ele>759.56</ele><time>2026-07-23T21:16:25.000Z</time></trkpt>
        <trkpt lat="28.3145714" lon="105.0493863"><ele>755.19</ele><time>2026-07-23T21:16:31.000Z</time></trkpt>
        <trkpt lat="28.3145637" lon="105.0492807"><ele>751.32</ele><time>2026-07-23T21:16:55.000Z</time></trkpt>
        <trkpt lat="28.3145549" lon="105.0492341"><ele>747.67</ele><time>2026-07-23T21:17:03.000Z</time></trkpt>
        <trkpt lat="28.3146164" lon="105.0491958"><ele>745.77</ele><time>2026-07-23T21:17:23.000Z</time></trkpt>
        <trkpt lat="28.3146093" lon="105.0491158"><ele>746.52</ele><time>2026-07-23T21:17:35.000Z</time></trkpt>
        <trkpt lat="28.3145755" lon="105.0490167"><ele>746.14</ele><time>2026-07-23T21:18:01.000Z</time></trkpt>
        <trkpt lat="28.3145598" lon="105.0489015"><ele>747.92</ele><time>2026-07-23T21:18:17.000Z</time></trkpt>
        <trkpt lat="28.3145308" lon="105.0487775"><ele>749.75</ele><time>2026-07-23T21:18:29.000Z</time></trkpt>
        <trkpt lat="28.3144897" lon="105.0486701"><ele>751.63</ele><time>2026-07-23T21:18:39.000Z</time></trkpt>
        <trkpt lat="28.3144735" lon="105.0485525"><ele>753.47</ele><time>2026-07-23T21:18:51.000Z</time></trkpt>
        <trkpt lat="28.3144703" lon="105.0484446"><ele>756.17</ele><time>2026-07-23T21:19:03.000Z</time></trkpt>
        <trkpt lat="28.3143909" lon="105.0484356"><ele>759.12</ele><time>2026-07-23T21:19:19.000Z</time></trkpt>
        <trkpt lat="28.3144301" lon="105.0484266"><ele>759.24</ele><time>2026-07-23T21:19:22.000Z</time></trkpt>
        <trkpt lat="28.3143777" lon="105.0484168"><ele>758.01</ele><time>2026-07-23T21:19:25.000Z</time></trkpt>
        <trkpt lat="28.31434" lon="105.0483436"><ele>758.76</ele><time>2026-07-23T21:19:47.000Z</time></trkpt>
        <trkpt lat="28.3142591" lon="105.0483014"><ele>757.88</ele><time>2026-07-23T21:19:55.000Z</time></trkpt>
        <trkpt lat="28.3141733" lon="105.0482533"><ele>756.65</ele><time>2026-07-23T21:20:03.000Z</time></trkpt>
        <trkpt lat="28.3140993" lon="105.0481765"><ele>757.23</ele><time>2026-07-23T21:20:15.000Z</time></trkpt>
        <trkpt lat="28.3140861" lon="105.0480683"><ele>757.85</ele><time>2026-07-23T21:20:39.000Z</time></trkpt>
        <trkpt lat="28.3141634" lon="105.0480068"><ele>754.87</ele><time>2026-07-23T21:20:55.000Z</time></trkpt>
        <trkpt lat="28.3142579" lon="105.0479765"><ele>750.54</ele><time>2026-07-23T21:21:07.000Z</time></trkpt>
        <trkpt lat="28.3142591" lon="105.0480446"><ele>746.28</ele><time>2026-07-23T21:22:02.000Z</time></trkpt>
        <trkpt lat="28.3142992" lon="105.0481353"><ele>743.39</ele><time>2026-07-23T21:22:15.000Z</time></trkpt>
        <trkpt lat="28.3143919" lon="105.0481754"><ele>742.11</ele><time>2026-07-23T21:22:27.000Z</time></trkpt>
        <trkpt lat="28.3144793" lon="105.0482378"><ele>740.93</ele><time>2026-07-23T21:22:35.000Z</time></trkpt>
        <trkpt lat="28.3145625" lon="105.0483051"><ele>738.23</ele><time>2026-07-23T21:22:45.000Z</time></trkpt>
        <trkpt lat="28.3146314" lon="105.0483932"><ele>736.65</ele><time>2026-07-23T21:22:57.000Z</time></trkpt>
        <trkpt lat="28.3146542" lon="105.0485036"><ele>734.85</ele><time>2026-07-23T21:23:11.000Z</time></trkpt>
        <trkpt lat="28.3147141" lon="105.0485805"><ele>734.51</ele><time>2026-07-23T21:23:29.000Z</time></trkpt>
        <trkpt lat="28.3148018" lon="105.0486048"><ele>732.97</ele><time>2026-07-23T21:23:37.000Z</time></trkpt>
        <trkpt lat="28.3148708" lon="105.0486761"><ele>732.19</ele><time>2026-07-23T21:24:17.000Z</time></trkpt>
        <trkpt lat="28.3149328" lon="105.0487589"><ele>729.25</ele><time>2026-07-23T21:24:29.000Z</time></trkpt>
        <trkpt lat="28.3149635" lon="105.0488647"><ele>729.43</ele><time>2026-07-23T21:24:43.000Z</time></trkpt>
        <trkpt lat="28.3149802" lon="105.0489707"><ele>728.47</ele><time>2026-07-23T21:25:15.000Z</time></trkpt>
        <trkpt lat="28.3149457" lon="105.0490762"><ele>727.65</ele><time>2026-07-23T21:25:29.000Z</time></trkpt>
        <trkpt lat="28.31493" lon="105.049185"><ele>724.19</ele><time>2026-07-23T21:25:41.000Z</time></trkpt>
        <trkpt lat="28.3149239" lon="105.049221"><ele>722.8</ele><time>2026-07-23T21:25:43.000Z</time></trkpt>
        <trkpt lat="28.3149506" lon="105.0491506"><ele>722.35</ele><time>2026-07-23T21:26:07.000Z</time></trkpt>
        <trkpt lat="28.3150219" lon="105.0491694"><ele>719.85</ele><time>2026-07-23T21:26:25.000Z</time></trkpt>
        <trkpt lat="28.3150868" lon="105.0492552"><ele>716.08</ele><time>2026-07-23T21:26:37.000Z</time></trkpt>
        <trkpt lat="28.3151558" lon="105.0493502"><ele>713.97</ele><time>2026-07-23T21:26:47.000Z</time></trkpt>
        <trkpt lat="28.3152374" lon="105.0494244"><ele>712.56</ele><time>2026-07-23T21:26:57.000Z</time></trkpt>
        <trkpt lat="28.3153262" lon="105.0494812"><ele>712.2</ele><time>2026-07-23T21:27:13.000Z</time></trkpt>
        <trkpt lat="28.3154234" lon="105.0495206"><ele>709.79</ele><time>2026-07-23T21:27:21.000Z</time></trkpt>
        <trkpt lat="28.3154899" lon="105.0495299"><ele>707.56</ele><time>2026-07-23T21:27:27.000Z</time></trkpt>
        <trkpt lat="28.3155772" lon="105.0495335"><ele>706.51</ele><time>2026-07-23T21:27:51.000Z</time></trkpt>
        <trkpt lat="28.3156707" lon="105.0495551"><ele>706.77</ele><time>2026-07-23T21:28:03.000Z</time></trkpt>
        <trkpt lat="28.3157726" lon="105.0495843"><ele>707.19</ele><time>2026-07-23T21:28:15.000Z</time></trkpt>
        <trkpt lat="28.315866" lon="105.0496257"><ele>707.83</ele><time>2026-07-23T21:28:25.000Z</time></trkpt>
        <trkpt lat="28.3158296" lon="105.0496816"><ele>707.35</ele><time>2026-07-23T21:28:51.000Z</time></trkpt>
        <trkpt lat="28.3157502" lon="105.049747"><ele>708.26</ele><time>2026-07-23T21:29:13.000Z</time></trkpt>
        <trkpt lat="28.3157753" lon="105.0498139"><ele>708.18</ele><time>2026-07-23T21:30:05.000Z</time></trkpt>
        <trkpt lat="28.315817" lon="105.0498865"><ele>709.66</ele><time>2026-07-23T21:30:27.000Z</time></trkpt>
        <trkpt lat="28.3158991" lon="105.0498714"><ele>710.94</ele><time>2026-07-23T21:30:41.000Z</time></trkpt>
        <trkpt lat="28.3160015" lon="105.0498545"><ele>710.43</ele><time>2026-07-23T21:30:57.000Z</time></trkpt>
        <trkpt lat="28.3159684" lon="105.0498155"><ele>705.74</ele><time>2026-07-23T21:31:43.000Z</time></trkpt>
        <trkpt lat="28.3159982" lon="105.0498547"><ele>704.28</ele><time>2026-07-23T21:32:21.000Z</time></trkpt>
        <trkpt lat="28.3160764" lon="105.0498585"><ele>702.62</ele><time>2026-07-23T21:32:33.000Z</time></trkpt>
        <trkpt lat="28.3160737" lon="105.0499556"><ele>701.35</ele><time>2026-07-23T21:32:40.000Z</time></trkpt>
        <trkpt lat="28.3160538" lon="105.0498927"><ele>701.19</ele><time>2026-07-23T21:32:52.000Z</time></trkpt>
        <trkpt lat="28.3159944" lon="105.0496997"><ele>700.41</ele><time>2026-07-23T21:33:21.000Z</time></trkpt>
        <trkpt lat="28.3160182" lon="105.0496417"><ele>698.87</ele><time>2026-07-23T21:33:35.000Z</time></trkpt>
        <trkpt lat="28.3156056" lon="105.0496043"><ele>698.36</ele><time>2026-07-23T21:39:24.000Z</time></trkpt>
        <trkpt lat="28.3155949" lon="105.0498363"><ele>694.62</ele><time>2026-07-23T21:39:34.000Z</time></trkpt>
        <trkpt lat="28.3156307" lon="105.049723"><ele>697.49</ele><time>2026-07-23T21:39:40.000Z</time></trkpt>
        <trkpt lat="28.3153797" lon="105.0498082"><ele>695.58</ele><time>2026-07-23T21:39:50.000Z</time></trkpt>
        <trkpt lat="28.3152929" lon="105.0498374"><ele>702.78</ele><time>2026-07-23T21:39:58.000Z</time></trkpt>
        <trkpt lat="28.3152356" lon="105.0497671"><ele>709.74</ele><time>2026-07-23T21:40:02.000Z</time></trkpt>
        <trkpt lat="28.3152875" lon="105.0497944"><ele>725.75</ele><time>2026-07-23T21:40:17.000Z</time></trkpt>
        <trkpt lat="28.3154223" lon="105.0497318"><ele>735.25</ele><time>2026-07-23T21:42:11.000Z</time></trkpt>
        <trkpt lat="28.315439" lon="105.0497434"><ele>741.6</ele><time>2026-07-23T21:42:19.000Z</time></trkpt>
        <trkpt lat="28.3155055" lon="105.049662"><ele>744.76</ele><time>2026-07-23T21:47:22.000Z</time></trkpt>
        <trkpt lat="28.315518" lon="105.0497777"><ele>743.93</ele><time>2026-07-23T21:47:32.000Z</time></trkpt>
        <trkpt lat="28.315463" lon="105.0498635"><ele>744.19</ele><time>2026-07-23T21:47:40.000Z</time></trkpt>
        <trkpt lat="28.3153605" lon="105.0498193"><ele>743.51</ele><time>2026-07-23T21:47:44.000Z</time></trkpt>
        <trkpt lat="28.3152892" lon="105.0497197"><ele>741.73</ele><time>2026-07-23T21:47:48.000Z</time></trkpt>
        <trkpt lat="28.3156309" lon="105.0496878"><ele>740.11</ele><time>2026-07-23T21:58:47.000Z</time></trkpt>
        <trkpt lat="28.3153602" lon="105.049678"><ele>741.77</ele><time>2026-07-23T21:58:55.000Z</time></trkpt>
        <trkpt lat="28.3158875" lon="105.0496332"><ele>737.66</ele><time>2026-07-23T22:03:09.000Z</time></trkpt>
        <trkpt lat="28.3158892" lon="105.0496297"><ele>705.99</ele><time>2026-07-23T22:03:11.000Z</time></trkpt>
        <trkpt lat="28.3158568" lon="105.0496282"><ele>685.31</ele><time>2026-07-23T22:03:27.000Z</time></trkpt>
        <trkpt lat="28.3159411" lon="105.0496673"><ele>670.52</ele><time>2026-07-23T22:04:34.000Z</time></trkpt>
        <trkpt lat="28.316023" lon="105.0497263"><ele>665.41</ele><time>2026-07-23T22:04:56.000Z</time></trkpt>
        <trkpt lat="28.3159755" lon="105.0496256"><ele>665.45</ele><time>2026-07-23T22:07:01.000Z</time></trkpt>
        <trkpt lat="28.3160902" lon="105.0497117"><ele>667.18</ele><time>2026-07-23T22:07:05.000Z</time></trkpt>
        <trkpt lat="28.3161926" lon="105.0497441"><ele>667.61</ele><time>2026-07-23T22:07:11.000Z</time></trkpt>
        <trkpt lat="28.3161171" lon="105.0496403"><ele>670.69</ele><time>2026-07-23T22:08:34.000Z</time></trkpt>
        <trkpt lat="28.3160009" lon="105.0496698"><ele>674.29</ele><time>2026-07-23T22:09:03.000Z</time></trkpt>
        <trkpt lat="28.3160787" lon="105.0496687"><ele>672.18</ele><time>2026-07-23T22:09:13.000Z</time></trkpt>
        <trkpt lat="28.3161841" lon="105.0496254"><ele>671.87</ele><time>2026-07-23T22:09:19.000Z</time></trkpt>
        <trkpt lat="28.3162099" lon="105.0495248"><ele>672.31</ele><time>2026-07-23T22:09:25.000Z</time></trkpt>
        <trkpt lat="28.3161565" lon="105.0495391"><ele>673.09</ele><time>2026-07-23T22:10:01.000Z</time></trkpt>
        <trkpt lat="28.316102" lon="105.0496252"><ele>678.29</ele><time>2026-07-23T22:10:03.000Z</time></trkpt>
        <trkpt lat="28.3160225" lon="105.049707"><ele>682.75</ele><time>2026-07-23T22:10:11.000Z</time></trkpt>
        <trkpt lat="28.3159985" lon="105.0498156"><ele>685.59</ele><time>2026-07-23T22:10:16.000Z</time></trkpt>
        <trkpt lat="28.3160738" lon="105.049832"><ele>689.73</ele><time>2026-07-23T22:10:58.000Z</time></trkpt>
        <trkpt lat="28.3161797" lon="105.0498324"><ele>690.8</ele><time>2026-07-23T22:11:14.000Z</time></trkpt>
        <trkpt lat="28.3162883" lon="105.0498098"><ele>690.62</ele><time>2026-07-23T22:11:26.000Z</time></trkpt>
        <trkpt lat="28.3163379" lon="105.0498134"><ele>688.48</ele><time>2026-07-23T22:11:32.000Z</time></trkpt>
        <trkpt lat="28.316411" lon="105.0497814"><ele>686.52</ele><time>2026-07-23T22:11:42.000Z</time></trkpt>
        <trkpt lat="28.3164993" lon="105.0497812"><ele>685.67</ele><time>2026-07-23T22:11:52.000Z</time></trkpt>
        <trkpt lat="28.3165968" lon="105.0497737"><ele>683.6</ele><time>2026-07-23T22:12:00.000Z</time></trkpt>
        <trkpt lat="28.3166947" lon="105.0497547"><ele>682.92</ele><time>2026-07-23T22:12:10.000Z</time></trkpt>
        <trkpt lat="28.316774" lon="105.049802"><ele>683.76</ele><time>2026-07-23T22:12:30.000Z</time></trkpt>
        <trkpt lat="28.3168572" lon="105.0497726"><ele>683.8</ele><time>2026-07-23T22:13:18.000Z</time></trkpt>
        <trkpt lat="28.3169431" lon="105.0498037"><ele>683.98</ele><time>2026-07-23T22:13:30.000Z</time></trkpt>
        <trkpt lat="28.3170328" lon="105.0498211"><ele>682.98</ele><time>2026-07-23T22:13:40.000Z</time></trkpt>
        <trkpt lat="28.3171373" lon="105.0498079"><ele>682.95</ele><time>2026-07-23T22:13:50.000Z</time></trkpt>
        <trkpt lat="28.3172411" lon="105.0497938"><ele>683.36</ele><time>2026-07-23T22:14:00.000Z</time></trkpt>
        <trkpt lat="28.3173411" lon="105.0497744"><ele>682.77</ele><time>2026-07-23T22:14:10.000Z</time></trkpt>
        <trkpt lat="28.3174373" lon="105.049736"><ele>680.97</ele><time>2026-07-23T22:14:20.000Z</time></trkpt>
        <trkpt lat="28.3175292" lon="105.049685"><ele>679.8</ele><time>2026-07-23T22:14:32.000Z</time></trkpt>
        <trkpt lat="28.3176113" lon="105.0496247"><ele>677.66</ele><time>2026-07-23T22:14:42.000Z</time></trkpt>
        <trkpt lat="28.3177033" lon="105.0495893"><ele>674.61</ele><time>2026-07-23T22:14:50.000Z</time></trkpt>
        <trkpt lat="28.3177955" lon="105.0495662"><ele>673.69</ele><time>2026-07-23T22:15:00.000Z</time></trkpt>
        <trkpt lat="28.3178919" lon="105.0495489"><ele>669.26</ele><time>2026-07-23T22:15:10.000Z</time></trkpt>
        <trkpt lat="28.3179824" lon="105.0495043"><ele>665.91</ele><time>2026-07-23T22:15:20.000Z</time></trkpt>
        <trkpt lat="28.318077" lon="105.0494903"><ele>664.4</ele><time>2026-07-23T22:15:34.000Z</time></trkpt>
        <trkpt lat="28.3181848" lon="105.0495061"><ele>659.94</ele><time>2026-07-23T22:15:44.000Z</time></trkpt>
        <trkpt lat="28.3182914" lon="105.0495129"><ele>655.29</ele><time>2026-07-23T22:15:54.000Z</time></trkpt>
        <trkpt lat="28.3183998" lon="105.0495119"><ele>652.37</ele><time>2026-07-23T22:16:04.000Z</time></trkpt>
        <trkpt lat="28.3184972" lon="105.0495169"><ele>650.77</ele><time>2026-07-23T22:16:12.000Z</time></trkpt>
        <trkpt lat="28.3185903" lon="105.0495411"><ele>651.22</ele><time>2026-07-23T22:16:22.000Z</time></trkpt>
        <trkpt lat="28.3186886" lon="105.0495685"><ele>652.1</ele><time>2026-07-23T22:16:32.000Z</time></trkpt>
        <trkpt lat="28.3187762" lon="105.0496045"><ele>653.93</ele><time>2026-07-23T22:16:42.000Z</time></trkpt>
        <trkpt lat="28.3188599" lon="105.0496625"><ele>653.55</ele><time>2026-07-23T22:16:52.000Z</time></trkpt>
        <trkpt lat="28.3189506" lon="105.0496919"><ele>652.34</ele><time>2026-07-23T22:17:04.000Z</time></trkpt>
        <trkpt lat="28.3190408" lon="105.0497208"><ele>650.34</ele><time>2026-07-23T22:17:12.000Z</time></trkpt>
        <trkpt lat="28.3191093" lon="105.049788"><ele>649</ele><time>2026-07-23T22:17:22.000Z</time></trkpt>
        <trkpt lat="28.3191661" lon="105.0498689"><ele>649.84</ele><time>2026-07-23T22:17:34.000Z</time></trkpt>
        <trkpt lat="28.3192265" lon="105.0499549"><ele>649.17</ele><time>2026-07-23T22:17:44.000Z</time></trkpt>
        <trkpt lat="28.3192261" lon="105.0499543"><ele>651.26</ele><time>2026-07-23T22:17:46.000Z</time></trkpt>
        <trkpt lat="28.3192841" lon="105.0499935"><ele>650.11</ele><time>2026-07-23T22:17:58.000Z</time></trkpt>
        <trkpt lat="28.3193797" lon="105.0500194"><ele>650.12</ele><time>2026-07-23T22:18:08.000Z</time></trkpt>
        <trkpt lat="28.3193884" lon="105.0500057"><ele>648.57</ele><time>2026-07-23T22:18:10.000Z</time></trkpt>
        <trkpt lat="28.3194569" lon="105.0500203"><ele>646.14</ele><time>2026-07-23T22:19:24.000Z</time></trkpt>
        <trkpt lat="28.3195545" lon="105.0500735"><ele>646.73</ele><time>2026-07-23T22:19:34.000Z</time></trkpt>
        <trkpt lat="28.3196411" lon="105.0501224"><ele>646.75</ele><time>2026-07-23T22:19:44.000Z</time></trkpt>
        <trkpt lat="28.3196595" lon="105.0502172"><ele>645.66</ele><time>2026-07-23T22:19:54.000Z</time></trkpt>
        <trkpt lat="28.3196643" lon="105.0503302"><ele>643.85</ele><time>2026-07-23T22:20:04.000Z</time></trkpt>
        <trkpt lat="28.3197208" lon="105.0504193"><ele>643.26</ele><time>2026-07-23T22:20:16.000Z</time></trkpt>
        <trkpt lat="28.3197969" lon="105.0504936"><ele>644.47</ele><time>2026-07-23T22:20:30.000Z</time></trkpt>
        <trkpt lat="28.3198943" lon="105.0505287"><ele>644.97</ele><time>2026-07-23T22:20:42.000Z</time></trkpt>
        <trkpt lat="28.3199909" lon="105.0505653"><ele>643.99</ele><time>2026-07-23T22:20:54.000Z</time></trkpt>
        <trkpt lat="28.3200214" lon="105.0506546"><ele>642.93</ele><time>2026-07-23T22:21:04.000Z</time></trkpt>
        <trkpt lat="28.3200267" lon="105.0507596"><ele>641.91</ele><time>2026-07-23T22:21:16.000Z</time></trkpt>
        <trkpt lat="28.3200698" lon="105.0508524"><ele>640.7</ele><time>2026-07-23T22:21:32.000Z</time></trkpt>
        <trkpt lat="28.320122" lon="105.0509394"><ele>638.81</ele><time>2026-07-23T22:21:42.000Z</time></trkpt>
        <trkpt lat="28.320134" lon="105.0510391"><ele>636.06</ele><time>2026-07-23T22:21:56.000Z</time></trkpt>
        <trkpt lat="28.3201848" lon="105.0511195"><ele>632.89</ele><time>2026-07-23T22:22:16.000Z</time></trkpt>
        <trkpt lat="28.3202699" lon="105.0511483"><ele>629.92</ele><time>2026-07-23T22:22:26.000Z</time></trkpt>
        <trkpt lat="28.3203615" lon="105.0511747"><ele>626.9</ele><time>2026-07-23T22:22:38.000Z</time></trkpt>
        <trkpt lat="28.3204455" lon="105.0512306"><ele>624.31</ele><time>2026-07-23T22:22:56.000Z</time></trkpt>
        <trkpt lat="28.3204073" lon="105.0513026"><ele>622.18</ele><time>2026-07-23T22:23:26.000Z</time></trkpt>
        <trkpt lat="28.3203651" lon="105.0513504"><ele>619.66</ele><time>2026-07-23T22:23:36.000Z</time></trkpt>
        <trkpt lat="28.3204234" lon="105.0513963"><ele>617.06</ele><time>2026-07-23T22:24:35.000Z</time></trkpt>
        <trkpt lat="28.3205129" lon="105.0514532"><ele>614.57</ele><time>2026-07-23T22:24:49.000Z</time></trkpt>
        <trkpt lat="28.3205849" lon="105.0515323"><ele>611.41</ele><time>2026-07-23T22:25:01.000Z</time></trkpt>
        <trkpt lat="28.3206707" lon="105.0516105"><ele>610.25</ele><time>2026-07-23T22:25:13.000Z</time></trkpt>
        <trkpt lat="28.3207748" lon="105.0516084"><ele>609.16</ele><time>2026-07-23T22:25:23.000Z</time></trkpt>
        <trkpt lat="28.3208288" lon="105.0516791"><ele>606.96</ele><time>2026-07-23T22:25:37.000Z</time></trkpt>
        <trkpt lat="28.3208951" lon="105.0517435"><ele>604.64</ele><time>2026-07-23T22:25:47.000Z</time></trkpt>
        <trkpt lat="28.3209483" lon="105.0518315"><ele>602.8</ele><time>2026-07-23T22:25:57.000Z</time></trkpt>
        <trkpt lat="28.321009" lon="105.0519117"><ele>600.97</ele><time>2026-07-23T22:26:11.000Z</time></trkpt>
        <trkpt lat="28.3210547" lon="105.0519307"><ele>600.12</ele><time>2026-07-23T22:26:19.000Z</time></trkpt>
        <trkpt lat="28.3211198" lon="105.0519974"><ele>599.5</ele><time>2026-07-23T22:26:35.000Z</time></trkpt>
        <trkpt lat="28.3211487" lon="105.0520631"><ele>599.61</ele><time>2026-07-23T22:26:45.000Z</time></trkpt>
        <trkpt lat="28.3212236" lon="105.0521158"><ele>598.44</ele><time>2026-07-23T22:26:55.000Z</time></trkpt>
        <trkpt lat="28.3212953" lon="105.052195"><ele>596.82</ele><time>2026-07-23T22:27:07.000Z</time></trkpt>
        <trkpt lat="28.3213705" lon="105.0522726"><ele>597.3</ele><time>2026-07-23T22:27:23.000Z</time></trkpt>
        <trkpt lat="28.3214495" lon="105.0523482"><ele>597.6</ele><time>2026-07-23T22:27:39.000Z</time></trkpt>
        <trkpt lat="28.3214748" lon="105.0523725"><ele>599.89</ele><time>2026-07-23T22:27:43.000Z</time></trkpt>
        <trkpt lat="28.3215299" lon="105.0524344"><ele>601.63</ele><time>2026-07-23T22:28:09.000Z</time></trkpt>
        <trkpt lat="28.3216059" lon="105.0524966"><ele>601.12</ele><time>2026-07-23T22:28:33.000Z</time></trkpt>
        <trkpt lat="28.3217015" lon="105.0524834"><ele>600.71</ele><time>2026-07-23T22:28:45.000Z</time></trkpt>
        <trkpt lat="28.3217405" lon="105.0524472"><ele>600.62</ele><time>2026-07-23T22:28:51.000Z</time></trkpt>
        <trkpt lat="28.321677" lon="105.0524525"><ele>600.62</ele><time>2026-07-23T22:29:38.000Z</time></trkpt>
        <trkpt lat="28.3215703" lon="105.0524501"><ele>600.7</ele><time>2026-07-23T22:29:52.000Z</time></trkpt>
        <trkpt lat="28.3216087" lon="105.0524734"><ele>602.15</ele><time>2026-07-23T22:30:06.000Z</time></trkpt>
        <trkpt lat="28.3217016" lon="105.0524875"><ele>603.8</ele><time>2026-07-23T22:30:24.000Z</time></trkpt>
        <trkpt lat="28.321798" lon="105.0525297"><ele>606.04</ele><time>2026-07-23T22:30:48.000Z</time></trkpt>
        <trkpt lat="28.3218689" lon="105.0526054"><ele>606.4</ele><time>2026-07-23T22:31:06.000Z</time></trkpt>
        <trkpt lat="28.3219577" lon="105.0526668"><ele>609.7</ele><time>2026-07-23T22:31:20.000Z</time></trkpt>
        <trkpt lat="28.3220418" lon="105.0527385"><ele>611.67</ele><time>2026-07-23T22:31:40.000Z</time></trkpt>
        <trkpt lat="28.3220894" lon="105.0528342"><ele>612.18</ele><time>2026-07-23T22:31:52.000Z</time></trkpt>
        <trkpt lat="28.3221015" lon="105.0528692"><ele>610.5</ele><time>2026-07-23T22:31:56.000Z</time></trkpt>
        <trkpt lat="28.3221095" lon="105.0529623"><ele>610.51</ele><time>2026-07-23T22:32:28.000Z</time></trkpt>
        <trkpt lat="28.3221557" lon="105.0530718"><ele>610.2</ele><time>2026-07-23T22:32:36.000Z</time></trkpt>
        <trkpt lat="28.3221137" lon="105.053165"><ele>610.99</ele><time>2026-07-23T22:32:42.000Z</time></trkpt>
        <trkpt lat="28.3220505" lon="105.0531954"><ele>611.11</ele><time>2026-07-23T22:32:52.000Z</time></trkpt>
        <trkpt lat="28.3219598" lon="105.0532211"><ele>608.3</ele><time>2026-07-23T22:33:16.000Z</time></trkpt>
        <trkpt lat="28.3219468" lon="105.0531453"><ele>605.37</ele><time>2026-07-23T22:33:36.000Z</time></trkpt>
        <trkpt lat="28.3218696" lon="105.0531191"><ele>608.74</ele><time>2026-07-23T22:33:52.000Z</time></trkpt>
        <trkpt lat="28.3218741" lon="105.0531813"><ele>612</ele><time>2026-07-23T22:34:16.000Z</time></trkpt>
        <trkpt lat="28.3218761" lon="105.0532875"><ele>617.76</ele><time>2026-07-23T22:34:32.000Z</time></trkpt>
        <trkpt lat="28.3218201" lon="105.0533722"><ele>621.92</ele><time>2026-07-23T22:34:46.000Z</time></trkpt>
        <trkpt lat="28.3218117" lon="105.0534778"><ele>624.5</ele><time>2026-07-23T22:34:58.000Z</time></trkpt>
        <trkpt lat="28.3217592" lon="105.0535617"><ele>628.21</ele><time>2026-07-23T22:35:16.000Z</time></trkpt>
        <trkpt lat="28.3217145" lon="105.0536548"><ele>631.2</ele><time>2026-07-23T22:37:48.000Z</time></trkpt>
        <trkpt lat="28.3217189" lon="105.0537625"><ele>633.46</ele><time>2026-07-23T22:45:06.000Z</time></trkpt>
        <trkpt lat="28.3216417" lon="105.0537097"><ele>637.67</ele><time>2026-07-23T22:45:54.000Z</time></trkpt>
        <trkpt lat="28.3216131" lon="105.0537927"><ele>638.17</ele><time>2026-07-23T22:46:18.000Z</time></trkpt>
        <trkpt lat="28.3216222" lon="105.0538335"><ele>636.87</ele><time>2026-07-23T22:46:32.000Z</time></trkpt>
        <trkpt lat="28.3216141" lon="105.0539298"><ele>634.67</ele><time>2026-07-23T22:46:48.000Z</time></trkpt>
        <trkpt lat="28.3215607" lon="105.054021"><ele>633.67</ele><time>2026-07-23T22:47:02.000Z</time></trkpt>
        <trkpt lat="28.3215124" lon="105.0539617"><ele>632.82</ele><time>2026-07-23T22:47:08.000Z</time></trkpt>
        <trkpt lat="28.3215067" lon="105.0540193"><ele>629.91</ele><time>2026-07-23T22:47:24.000Z</time></trkpt>
        <trkpt lat="28.3214908" lon="105.0541175"><ele>627.14</ele><time>2026-07-23T22:48:08.000Z</time></trkpt>
        <trkpt lat="28.3215405" lon="105.0542151"><ele>622.92</ele><time>2026-07-23T22:48:32.000Z</time></trkpt>
        <trkpt lat="28.3216346" lon="105.0542276"><ele>618.46</ele><time>2026-07-23T22:49:06.000Z</time></trkpt>
        <trkpt lat="28.3216281" lon="105.0541576"><ele>612.17</ele><time>2026-07-23T22:49:16.000Z</time></trkpt>
        <trkpt lat="28.3216551" lon="105.0541407"><ele>607.05</ele><time>2026-07-23T22:49:28.000Z</time></trkpt>
        <trkpt lat="28.321619" lon="105.05421"><ele>603.75</ele><time>2026-07-23T22:49:58.000Z</time></trkpt>
        <trkpt lat="28.3215534" lon="105.0543046"><ele>599.74</ele><time>2026-07-23T22:50:12.000Z</time></trkpt>
        <trkpt lat="28.3214676" lon="105.0543675"><ele>596.45</ele><time>2026-07-23T22:50:24.000Z</time></trkpt>
        <trkpt lat="28.3213985" lon="105.0544546"><ele>593.97</ele><time>2026-07-23T22:50:40.000Z</time></trkpt>
        <trkpt lat="28.3213185" lon="105.0545303"><ele>592.71</ele><time>2026-07-23T22:50:54.000Z</time></trkpt>
        <trkpt lat="28.3212345" lon="105.0546039"><ele>592.52</ele><time>2026-07-23T22:51:06.000Z</time></trkpt>
        <trkpt lat="28.3211479" lon="105.0546545"><ele>592.2</ele><time>2026-07-23T22:51:20.000Z</time></trkpt>
        <trkpt lat="28.3210866" lon="105.0547296"><ele>591.78</ele><time>2026-07-23T22:51:36.000Z</time></trkpt>
        <trkpt lat="28.3210113" lon="105.0547893"><ele>593.73</ele><time>2026-07-23T22:51:52.000Z</time></trkpt>
        <trkpt lat="28.3209228" lon="105.0548377"><ele>595.53</ele><time>2026-07-23T22:52:08.000Z</time></trkpt>
        <trkpt lat="28.3208391" lon="105.0548862"><ele>599.68</ele><time>2026-07-23T22:52:24.000Z</time></trkpt>
        <trkpt lat="28.320745" lon="105.0548825"><ele>605.73</ele><time>2026-07-23T22:52:38.000Z</time></trkpt>
        <trkpt lat="28.3206447" lon="105.0548568"><ele>609.18</ele><time>2026-07-23T22:52:52.000Z</time></trkpt>
        <trkpt lat="28.3205506" lon="105.054842"><ele>611.82</ele><time>2026-07-23T22:53:08.000Z</time></trkpt>
        <trkpt lat="28.32046" lon="105.0548634"><ele>614.48</ele><time>2026-07-23T22:53:34.000Z</time></trkpt>
        <trkpt lat="28.3204209" lon="105.0549707"><ele>616.75</ele><time>2026-07-23T22:57:08.000Z</time></trkpt>
        <trkpt lat="28.3204708" lon="105.0550736"><ele>617.9</ele><time>2026-07-23T22:57:28.000Z</time></trkpt>
        <trkpt lat="28.320504" lon="105.055173"><ele>621.89</ele><time>2026-07-23T22:58:24.000Z</time></trkpt>
        <trkpt lat="28.3205575" lon="105.0552602"><ele>632.61</ele><time>2026-07-23T22:58:54.000Z</time></trkpt>
        <trkpt lat="28.3206369" lon="105.0553053"><ele>646.77</ele><time>2026-07-23T22:59:12.000Z</time></trkpt>
        <trkpt lat="28.3207199" lon="105.055348"><ele>656.74</ele><time>2026-07-23T22:59:26.000Z</time></trkpt>
        <trkpt lat="28.3208161" lon="105.0553393"><ele>659.53</ele><time>2026-07-23T22:59:42.000Z</time></trkpt>
        <trkpt lat="28.3209137" lon="105.0553688"><ele>661.11</ele><time>2026-07-23T23:00:02.000Z</time></trkpt>
        <trkpt lat="28.3210141" lon="105.0553729"><ele>661.53</ele><time>2026-07-23T23:00:26.000Z</time></trkpt>
        <trkpt lat="28.3211138" lon="105.0553913"><ele>662.52</ele><time>2026-07-23T23:00:44.000Z</time></trkpt>
        <trkpt lat="28.3210711" lon="105.0554303"><ele>665.41</ele><time>2026-07-23T23:01:02.000Z</time></trkpt>
        <trkpt lat="28.3211157" lon="105.0554533"><ele>668.74</ele><time>2026-07-23T23:01:18.000Z</time></trkpt>
        <trkpt lat="28.3212016" lon="105.055469"><ele>671.45</ele><time>2026-07-23T23:01:40.000Z</time></trkpt>
        <trkpt lat="28.3212951" lon="105.0554852"><ele>673.21</ele><time>2026-07-23T23:01:56.000Z</time></trkpt>
        <trkpt lat="28.3213887" lon="105.0555132"><ele>675.61</ele><time>2026-07-23T23:02:18.000Z</time></trkpt>
        <trkpt lat="28.3213513" lon="105.0555534"><ele>677.63</ele><time>2026-07-23T23:02:38.000Z</time></trkpt>
        <trkpt lat="28.3212664" lon="105.0556075"><ele>679.48</ele><time>2026-07-23T23:02:54.000Z</time></trkpt>
        <trkpt lat="28.3211691" lon="105.0556508"><ele>681.98</ele><time>2026-07-23T23:03:10.000Z</time></trkpt>
        <trkpt lat="28.3210751" lon="105.0557122"><ele>686.04</ele><time>2026-07-23T23:03:30.000Z</time></trkpt>
        <trkpt lat="28.3210073" lon="105.0557992"><ele>690.28</ele><time>2026-07-23T23:03:46.000Z</time></trkpt>
        <trkpt lat="28.3209372" lon="105.0558815"><ele>692.92</ele><time>2026-07-23T23:04:02.000Z</time></trkpt>
        <trkpt lat="28.3209145" lon="105.0559805"><ele>696.92</ele><time>2026-07-23T23:04:14.000Z</time></trkpt>
        <trkpt lat="28.3209152" lon="105.0560936"><ele>699</ele><time>2026-07-23T23:04:26.000Z</time></trkpt>
        <trkpt lat="28.3209275" lon="105.0562164"><ele>700.61</ele><time>2026-07-23T23:15:36.000Z</time></trkpt>
        <trkpt lat="28.3209202" lon="105.0563307"><ele>701.68</ele><time>2026-07-23T23:15:48.000Z</time></trkpt>
        <trkpt lat="28.3209439" lon="105.0564355"><ele>702.1</ele><time>2026-07-23T23:16:10.000Z</time></trkpt>
        <trkpt lat="28.3208836" lon="105.0564836"><ele>701.99</ele><time>2026-07-23T23:16:22.000Z</time></trkpt>
        <trkpt lat="28.3208531" lon="105.056569"><ele>701.63</ele><time>2026-07-23T23:16:34.000Z</time></trkpt>
        <trkpt lat="28.3208998" lon="105.056652"><ele>702.84</ele><time>2026-07-23T23:16:44.000Z</time></trkpt>
        <trkpt lat="28.3209889" lon="105.0566876"><ele>703.07</ele><time>2026-07-23T23:16:54.000Z</time></trkpt>
        <trkpt lat="28.3210952" lon="105.0566894"><ele>703.03</ele><time>2026-07-23T23:17:06.000Z</time></trkpt>
        <trkpt lat="28.3211971" lon="105.056692"><ele>703.21</ele><time>2026-07-23T23:17:18.000Z</time></trkpt>
        <trkpt lat="28.3212941" lon="105.0566994"><ele>703.28</ele><time>2026-07-23T23:17:30.000Z</time></trkpt>
        <trkpt lat="28.3213909" lon="105.0567127"><ele>703.39</ele><time>2026-07-23T23:17:42.000Z</time></trkpt>
        <trkpt lat="28.321495" lon="105.0567135"><ele>703.16</ele><time>2026-07-23T23:17:54.000Z</time></trkpt>
        <trkpt lat="28.321594" lon="105.0567298"><ele>701.14</ele><time>2026-07-23T23:18:04.000Z</time></trkpt>
        <trkpt lat="28.3216887" lon="105.0567719"><ele>700.9</ele><time>2026-07-23T23:18:14.000Z</time></trkpt>
        <trkpt lat="28.3217842" lon="105.056765"><ele>699.17</ele><time>2026-07-23T23:18:24.000Z</time></trkpt>
        <trkpt lat="28.3218877" lon="105.0567554"><ele>697.61</ele><time>2026-07-23T23:18:34.000Z</time></trkpt>
        <trkpt lat="28.321986" lon="105.0567437"><ele>695.01</ele><time>2026-07-23T23:18:44.000Z</time></trkpt>
        <trkpt lat="28.3220525" lon="105.0567998"><ele>693.54</ele><time>2026-07-23T23:18:54.000Z</time></trkpt>
        <trkpt lat="28.3221155" lon="105.0568928"><ele>694.13</ele><time>2026-07-23T23:19:06.000Z</time></trkpt>
        <trkpt lat="28.3221926" lon="105.056967"><ele>695.63</ele><time>2026-07-23T23:19:18.000Z</time></trkpt>
        <trkpt lat="28.3222764" lon="105.0570141"><ele>695.98</ele><time>2026-07-23T23:19:28.000Z</time></trkpt>
        <trkpt lat="28.322345" lon="105.0570739"><ele>695.12</ele><time>2026-07-23T23:19:40.000Z</time></trkpt>
        <trkpt lat="28.3224214" lon="105.0571375"><ele>694.28</ele><time>2026-07-23T23:19:56.000Z</time></trkpt>
        <trkpt lat="28.3224989" lon="105.0572121"><ele>692.93</ele><time>2026-07-23T23:20:10.000Z</time></trkpt>
        <trkpt lat="28.3225517" lon="105.0573051"><ele>690.94</ele><time>2026-07-23T23:20:28.000Z</time></trkpt>
        <trkpt lat="28.3226044" lon="105.0573953"><ele>687.76</ele><time>2026-07-23T23:20:38.000Z</time></trkpt>
        <trkpt lat="28.3226652" lon="105.0574775"><ele>685.1</ele><time>2026-07-23T23:20:48.000Z</time></trkpt>
        <trkpt lat="28.3227271" lon="105.0575672"><ele>682.8</ele><time>2026-07-23T23:20:58.000Z</time></trkpt>
        <trkpt lat="28.3228078" lon="105.0576286"><ele>681.25</ele><time>2026-07-23T23:21:08.000Z</time></trkpt>
        <trkpt lat="28.3228973" lon="105.0576628"><ele>681.4</ele><time>2026-07-23T23:21:18.000Z</time></trkpt>
        <trkpt lat="28.3229831" lon="105.0577087"><ele>681.37</ele><time>2026-07-23T23:21:30.000Z</time></trkpt>
        <trkpt lat="28.3230684" lon="105.0577579"><ele>681.58</ele><time>2026-07-23T23:21:42.000Z</time></trkpt>
        <trkpt lat="28.3231559" lon="105.0578154"><ele>681.44</ele><time>2026-07-23T23:21:54.000Z</time></trkpt>
        <trkpt lat="28.3232196" lon="105.0579069"><ele>681.07</ele><time>2026-07-23T23:22:36.000Z</time></trkpt>
        <trkpt lat="28.3231984" lon="105.0580255"><ele>681.57</ele><time>2026-07-23T23:24:28.000Z</time></trkpt>
        <trkpt lat="28.323223" lon="105.0579052"><ele>679.6</ele><time>2026-07-23T23:25:26.000Z</time></trkpt>
        <trkpt lat="28.3232695" lon="105.0578065"><ele>678.24</ele><time>2026-07-23T23:25:42.000Z</time></trkpt>
        <trkpt lat="28.3233101" lon="105.0577117"><ele>678</ele><time>2026-07-23T23:26:02.000Z</time></trkpt>
        <trkpt lat="28.3233823" lon="105.0577388"><ele>679.39</ele><time>2026-07-23T23:26:38.000Z</time></trkpt>
        <trkpt lat="28.3233552" lon="105.0578353"><ele>679.87</ele><time>2026-07-23T23:26:42.000Z</time></trkpt>
        <trkpt lat="28.3232907" lon="105.0579523"><ele>679.5</ele><time>2026-07-23T23:26:46.000Z</time></trkpt>
        <trkpt lat="28.3231594" lon="105.0582806"><ele>679.41</ele><time>2026-07-23T23:26:54.000Z</time></trkpt>
        <trkpt lat="28.3230705" lon="105.0585195"><ele>680.31</ele><time>2026-07-23T23:26:58.000Z</time></trkpt>
        <trkpt lat="28.3229999" lon="105.0587122"><ele>681.54</ele><time>2026-07-23T23:27:02.000Z</time></trkpt>
        <trkpt lat="28.3229299" lon="105.0588524"><ele>682.94</ele><time>2026-07-23T23:27:06.000Z</time></trkpt>
        <trkpt lat="28.3228603" lon="105.0589424"><ele>684.06</ele><time>2026-07-23T23:27:12.000Z</time></trkpt>
        <trkpt lat="28.3227731" lon="105.0590381"><ele>685.34</ele><time>2026-07-23T23:27:16.000Z</time></trkpt>
        <trkpt lat="28.3226577" lon="105.0591533"><ele>686.49</ele><time>2026-07-23T23:27:20.000Z</time></trkpt>
        <trkpt lat="28.3225603" lon="105.0592337"><ele>687.45</ele><time>2026-07-23T23:27:22.000Z</time></trkpt>
        <trkpt lat="28.3224577" lon="105.0593045"><ele>687.99</ele><time>2026-07-23T23:27:24.000Z</time></trkpt>
        <trkpt lat="28.3223427" lon="105.0593767"><ele>688.52</ele><time>2026-07-23T23:27:26.000Z</time></trkpt>
        <trkpt lat="28.3222204" lon="105.0594502"><ele>689.34</ele><time>2026-07-23T23:27:28.000Z</time></trkpt>
        <trkpt lat="28.3221012" lon="105.0595285"><ele>690.43</ele><time>2026-07-23T23:27:30.000Z</time></trkpt>
        <trkpt lat="28.3219986" lon="105.0596282"><ele>691.83</ele><time>2026-07-23T23:27:32.000Z</time></trkpt>
        <trkpt lat="28.3219032" lon="105.0597204"><ele>693.31</ele><time>2026-07-23T23:27:34.000Z</time></trkpt>
        <trkpt lat="28.3218116" lon="105.0598028"><ele>694.97</ele><time>2026-07-23T23:27:36.000Z</time></trkpt>
        <trkpt lat="28.3217254" lon="105.0598795"><ele>696.34</ele><time>2026-07-23T23:27:38.000Z</time></trkpt>
        <trkpt lat="28.3216417" lon="105.0599815"><ele>697.59</ele><time>2026-07-23T23:27:40.000Z</time></trkpt>
        <trkpt lat="28.321606" lon="105.0601101"><ele>698.44</ele><time>2026-07-23T23:27:42.000Z</time></trkpt>
        <trkpt lat="28.3215961" lon="105.0602708"><ele>698.66</ele><time>2026-07-23T23:27:44.000Z</time></trkpt>
        <trkpt lat="28.3215926" lon="105.0604434"><ele>698.91</ele><time>2026-07-23T23:27:46.000Z</time></trkpt>
        <trkpt lat="28.3215693" lon="105.0606011"><ele>699.45</ele><time>2026-07-23T23:27:48.000Z</time></trkpt>
        <trkpt lat="28.3214834" lon="105.0607245"><ele>699.94</ele><time>2026-07-23T23:27:50.000Z</time></trkpt>
        <trkpt lat="28.3213512" lon="105.060822"><ele>700.53</ele><time>2026-07-23T23:27:52.000Z</time></trkpt>
        <trkpt lat="28.3212092" lon="105.0609148"><ele>701.46</ele><time>2026-07-23T23:27:54.000Z</time></trkpt>
        <trkpt lat="28.321067" lon="105.0610163"><ele>702.81</ele><time>2026-07-23T23:27:56.000Z</time></trkpt>
        <trkpt lat="28.3209342" lon="105.0611191"><ele>704.21</ele><time>2026-07-23T23:27:58.000Z</time></trkpt>
        <trkpt lat="28.3208006" lon="105.0612011"><ele>706.19</ele><time>2026-07-23T23:28:00.000Z</time></trkpt>
        <trkpt lat="28.320657" lon="105.0612598"><ele>707.61</ele><time>2026-07-23T23:28:02.000Z</time></trkpt>
        <trkpt lat="28.3205099" lon="105.0612954"><ele>709.08</ele><time>2026-07-23T23:28:04.000Z</time></trkpt>
        <trkpt lat="28.3203687" lon="105.0613261"><ele>710.72</ele><time>2026-07-23T23:28:06.000Z</time></trkpt>
        <trkpt lat="28.3202341" lon="105.061375"><ele>712.31</ele><time>2026-07-23T23:28:08.000Z</time></trkpt>
        <trkpt lat="28.3201384" lon="105.0614684"><ele>713.79</ele><time>2026-07-23T23:28:10.000Z</time></trkpt>
        <trkpt lat="28.3201073" lon="105.0615821"><ele>714.92</ele><time>2026-07-23T23:28:12.000Z</time></trkpt>
        <trkpt lat="28.320132" lon="105.0616961"><ele>715.31</ele><time>2026-07-23T23:28:14.000Z</time></trkpt>
        <trkpt lat="28.3201877" lon="105.0618065"><ele>714.77</ele><time>2026-07-23T23:28:16.000Z</time></trkpt>
        <trkpt lat="28.3202488" lon="105.0619088"><ele>714.44</ele><time>2026-07-23T23:28:18.000Z</time></trkpt>
        <trkpt lat="28.3203395" lon="105.0620344"><ele>714.16</ele><time>2026-07-23T23:28:22.000Z</time></trkpt>
        <trkpt lat="28.3204462" lon="105.0620377"><ele>714.15</ele><time>2026-07-23T23:28:26.000Z</time></trkpt>
        <trkpt lat="28.320508" lon="105.0619449"><ele>713.71</ele><time>2026-07-23T23:28:32.000Z</time></trkpt>
        <trkpt lat="28.3205729" lon="105.0619582"><ele>712.97</ele><time>2026-07-23T23:29:40.000Z</time></trkpt>
        <trkpt lat="28.3206622" lon="105.0619859"><ele>712.36</ele><time>2026-07-23T23:30:26.000Z</time></trkpt>
        <trkpt lat="28.3207593" lon="105.0620167"><ele>710.98</ele><time>2026-07-23T23:30:36.000Z</time></trkpt>
        <trkpt lat="28.3208633" lon="105.0620528"><ele>707.32</ele><time>2026-07-23T23:30:44.000Z</time></trkpt>
        <trkpt lat="28.3209742" lon="105.0620742"><ele>703.22</ele><time>2026-07-23T23:30:52.000Z</time></trkpt>
        <trkpt lat="28.3210901" lon="105.0620993"><ele>700.89</ele><time>2026-07-23T23:31:00.000Z</time></trkpt>
        <trkpt lat="28.3211985" lon="105.06212"><ele>699.88</ele><time>2026-07-23T23:31:08.000Z</time></trkpt>
        <trkpt lat="28.3212962" lon="105.0621477"><ele>698.38</ele><time>2026-07-23T23:31:16.000Z</time></trkpt>
        <trkpt lat="28.3213997" lon="105.0621495"><ele>696.93</ele><time>2026-07-23T23:31:27.000Z</time></trkpt>
        <trkpt lat="28.3214918" lon="105.0621119"><ele>694.97</ele><time>2026-07-23T23:31:49.000Z</time></trkpt>
        <trkpt lat="28.3215384" lon="105.062175"><ele>692.04</ele><time>2026-07-23T23:32:07.000Z</time></trkpt>
        <trkpt lat="28.3215941" lon="105.0622529"><ele>688.12</ele><time>2026-07-23T23:32:19.000Z</time></trkpt>
        <trkpt lat="28.3215973" lon="105.0622702"><ele>685.53</ele><time>2026-07-23T23:32:21.000Z</time></trkpt>
        <trkpt lat="28.3216599" lon="105.0622974"><ele>683.93</ele><time>2026-07-23T23:32:37.000Z</time></trkpt>
        <trkpt lat="28.3217418" lon="105.0623343"><ele>683.36</ele><time>2026-07-23T23:32:53.000Z</time></trkpt>
        <trkpt lat="28.3217648" lon="105.062253"><ele>679.3</ele><time>2026-07-23T23:33:03.000Z</time></trkpt>
        <trkpt lat="28.3217788" lon="105.0621388"><ele>676.2</ele><time>2026-07-23T23:33:19.000Z</time></trkpt>
        <trkpt lat="28.3218515" lon="105.0620846"><ele>672.56</ele><time>2026-07-23T23:33:31.000Z</time></trkpt>
        <trkpt lat="28.3219428" lon="105.0620591"><ele>671.16</ele><time>2026-07-23T23:33:41.000Z</time></trkpt>
        <trkpt lat="28.322046" lon="105.0620609"><ele>670.92</ele><time>2026-07-23T23:33:53.000Z</time></trkpt>
        <trkpt lat="28.3220361" lon="105.0621416"><ele>670.06</ele><time>2026-07-23T23:34:09.000Z</time></trkpt>
        <trkpt lat="28.3220905" lon="105.0621977"><ele>669.79</ele><time>2026-07-23T23:34:23.000Z</time></trkpt>
        <trkpt lat="28.3221733" lon="105.0621933"><ele>669.02</ele><time>2026-07-23T23:34:33.000Z</time></trkpt>
        <trkpt lat="28.3222682" lon="105.062178"><ele>668.02</ele><time>2026-07-23T23:34:43.000Z</time></trkpt>
        <trkpt lat="28.3223399" lon="105.0620929"><ele>666.93</ele><time>2026-07-23T23:34:55.000Z</time></trkpt>
        <trkpt lat="28.3224095" lon="105.0620124"><ele>663.1</ele><time>2026-07-23T23:35:09.000Z</time></trkpt>
        <trkpt lat="28.3224866" lon="105.0619349"><ele>660.22</ele><time>2026-07-23T23:35:37.000Z</time></trkpt>
        <trkpt lat="28.3225618" lon="105.0618476"><ele>657.96</ele><time>2026-07-23T23:35:49.000Z</time></trkpt>
        <trkpt lat="28.3226199" lon="105.0617573"><ele>657.94</ele><time>2026-07-23T23:36:03.000Z</time></trkpt>
        <trkpt lat="28.3227035" lon="105.061706"><ele>656.3</ele><time>2026-07-23T23:36:17.000Z</time></trkpt>
        <trkpt lat="28.3227954" lon="105.0616803"><ele>655.44</ele><time>2026-07-23T23:36:31.000Z</time></trkpt>
        <trkpt lat="28.3228882" lon="105.0616459"><ele>654.01</ele><time>2026-07-23T23:36:45.000Z</time></trkpt>
        <trkpt lat="28.3229731" lon="105.0616022"><ele>654.18</ele><time>2026-07-23T23:36:57.000Z</time></trkpt>
        <trkpt lat="28.3230592" lon="105.0615626"><ele>652.77</ele><time>2026-07-23T23:37:05.000Z</time></trkpt>
        <trkpt lat="28.3231084" lon="105.0615281"><ele>652.6</ele><time>2026-07-23T23:37:15.000Z</time></trkpt>
        <trkpt lat="28.3231572" lon="105.061449"><ele>652.63</ele><time>2026-07-23T23:38:43.000Z</time></trkpt>
        <trkpt lat="28.3232444" lon="105.0614746"><ele>650.22</ele><time>2026-07-23T23:38:57.000Z</time></trkpt>
        <trkpt lat="28.3233336" lon="105.0615008"><ele>647.62</ele><time>2026-07-23T23:39:07.000Z</time></trkpt>
        <trkpt lat="28.3234289" lon="105.0614798"><ele>646.17</ele><time>2026-07-23T23:39:15.000Z</time></trkpt>
        <trkpt lat="28.3235227" lon="105.0615095"><ele>645.45</ele><time>2026-07-23T23:39:25.000Z</time></trkpt>
        <trkpt lat="28.323622" lon="105.0615259"><ele>645.37</ele><time>2026-07-23T23:39:39.000Z</time></trkpt>
        <trkpt lat="28.3237173" lon="105.061508"><ele>643.72</ele><time>2026-07-23T23:39:49.000Z</time></trkpt>
        <trkpt lat="28.3238076" lon="105.0614856"><ele>642.46</ele><time>2026-07-23T23:39:59.000Z</time></trkpt>
        <trkpt lat="28.3238891" lon="105.0614261"><ele>641.52</ele><time>2026-07-23T23:40:13.000Z</time></trkpt>
        <trkpt lat="28.3239789" lon="105.0614131"><ele>641.69</ele><time>2026-07-23T23:40:29.000Z</time></trkpt>
        <trkpt lat="28.3240707" lon="105.0613949"><ele>640.83</ele><time>2026-07-23T23:40:41.000Z</time></trkpt>
        <trkpt lat="28.3241626" lon="105.0613958"><ele>638.95</ele><time>2026-07-23T23:40:57.000Z</time></trkpt>
        <trkpt lat="28.3242501" lon="105.0614308"><ele>638.26</ele><time>2026-07-23T23:41:15.000Z</time></trkpt>
        <trkpt lat="28.3242606" lon="105.0613665"><ele>637.8</ele><time>2026-07-23T23:41:29.000Z</time></trkpt>
        <trkpt lat="28.3242818" lon="105.0614196"><ele>635.44</ele><time>2026-07-23T23:41:51.000Z</time></trkpt>
        <trkpt lat="28.3243194" lon="105.0615117"><ele>634.71</ele><time>2026-07-23T23:42:07.000Z</time></trkpt>
        <trkpt lat="28.3243325" lon="105.0615436"><ele>633.17</ele><time>2026-07-23T23:42:11.000Z</time></trkpt>
        <trkpt lat="28.3243813" lon="105.0616176"><ele>632.48</ele><time>2026-07-23T23:43:37.000Z</time></trkpt>
        <trkpt lat="28.3243309" lon="105.0615756"><ele>630.55</ele><time>2026-07-23T23:43:45.000Z</time></trkpt>
        <trkpt lat="28.3243767" lon="105.0614973"><ele>627.69</ele><time>2026-07-23T23:44:35.000Z</time></trkpt>
        <trkpt lat="28.3244587" lon="105.0614439"><ele>621.68</ele><time>2026-07-23T23:44:45.000Z</time></trkpt>
        <trkpt lat="28.3245452" lon="105.0613749"><ele>617.61</ele><time>2026-07-23T23:44:55.000Z</time></trkpt>
        <trkpt lat="28.3246198" lon="105.0614124"><ele>615.32</ele><time>2026-07-23T23:45:21.000Z</time></trkpt>
        <trkpt lat="28.3247112" lon="105.0614165"><ele>614.34</ele><time>2026-07-23T23:46:09.000Z</time></trkpt>
        <trkpt lat="28.3248083" lon="105.0614542"><ele>611.9</ele><time>2026-07-23T23:46:21.000Z</time></trkpt>
        <trkpt lat="28.3248876" lon="105.0614158"><ele>611.34</ele><time>2026-07-23T23:46:29.000Z</time></trkpt>
        <trkpt lat="28.3249792" lon="105.061393"><ele>610.31</ele><time>2026-07-23T23:46:41.000Z</time></trkpt>
        <trkpt lat="28.3250763" lon="105.0613784"><ele>607.97</ele><time>2026-07-23T23:46:51.000Z</time></trkpt>
        <trkpt lat="28.3251699" lon="105.0613852"><ele>604.61</ele><time>2026-07-23T23:47:01.000Z</time></trkpt>
        <trkpt lat="28.3252579" lon="105.0614416"><ele>602.9</ele><time>2026-07-23T23:47:11.000Z</time></trkpt>
        <trkpt lat="28.3253404" lon="105.061523"><ele>604.28</ele><time>2026-07-23T23:47:21.000Z</time></trkpt>
        <trkpt lat="28.3254311" lon="105.0615848"><ele>605.25</ele><time>2026-07-23T23:47:31.000Z</time></trkpt>
        <trkpt lat="28.3255236" lon="105.061607"><ele>605.65</ele><time>2026-07-23T23:47:41.000Z</time></trkpt>
        <trkpt lat="28.3256186" lon="105.0615941"><ele>605.2</ele><time>2026-07-23T23:47:51.000Z</time></trkpt>
        <trkpt lat="28.3256931" lon="105.0615099"><ele>603.68</ele><time>2026-07-23T23:48:01.000Z</time></trkpt>
        <trkpt lat="28.3257826" lon="105.0614706"><ele>602.11</ele><time>2026-07-23T23:48:11.000Z</time></trkpt>
        <trkpt lat="28.3258739" lon="105.0614552"><ele>601.98</ele><time>2026-07-23T23:48:21.000Z</time></trkpt>
        <trkpt lat="28.3259593" lon="105.0614149"><ele>601.18</ele><time>2026-07-23T23:48:31.000Z</time></trkpt>
        <trkpt lat="28.3260464" lon="105.0613555"><ele>598.51</ele><time>2026-07-23T23:48:41.000Z</time></trkpt>
        <trkpt lat="28.3261439" lon="105.0613107"><ele>596.94</ele><time>2026-07-23T23:48:55.000Z</time></trkpt>
        <trkpt lat="28.3262138" lon="105.0612781"><ele>593.78</ele><time>2026-07-23T23:49:05.000Z</time></trkpt>
        <trkpt lat="28.3263039" lon="105.0612754"><ele>592.13</ele><time>2026-07-23T23:49:17.000Z</time></trkpt>
        <trkpt lat="28.3263853" lon="105.0612385"><ele>591.62</ele><time>2026-07-23T23:49:27.000Z</time></trkpt>
        <trkpt lat="28.3264729" lon="105.0612024"><ele>591.91</ele><time>2026-07-23T23:49:37.000Z</time></trkpt>
        <trkpt lat="28.3265497" lon="105.0611359"><ele>591.55</ele><time>2026-07-23T23:49:47.000Z</time></trkpt>
        <trkpt lat="28.3266308" lon="105.0610653"><ele>591.13</ele><time>2026-07-23T23:49:59.000Z</time></trkpt>
        <trkpt lat="28.3267239" lon="105.061004"><ele>591.32</ele><time>2026-07-23T23:50:11.000Z</time></trkpt>
        <trkpt lat="28.3268126" lon="105.0609426"><ele>591.04</ele><time>2026-07-23T23:50:21.000Z</time></trkpt>
        <trkpt lat="28.3268973" lon="105.0608774"><ele>590.18</ele><time>2026-07-23T23:50:31.000Z</time></trkpt>
        <trkpt lat="28.3269863" lon="105.0608359"><ele>590.49</ele><time>2026-07-23T23:50:39.000Z</time></trkpt>
        <trkpt lat="28.3270839" lon="105.0608285"><ele>589.07</ele><time>2026-07-23T23:50:49.000Z</time></trkpt>
        <trkpt lat="28.327182" lon="105.0608397"><ele>587.9</ele><time>2026-07-23T23:51:01.000Z</time></trkpt>
        <trkpt lat="28.3272658" lon="105.0608948"><ele>587.13</ele><time>2026-07-23T23:51:13.000Z</time></trkpt>
        <trkpt lat="28.3273656" lon="105.0609065"><ele>587.36</ele><time>2026-07-23T23:51:23.000Z</time></trkpt>
        <trkpt lat="28.3274509" lon="105.0608535"><ele>585.29</ele><time>2026-07-23T23:51:33.000Z</time></trkpt>
        <trkpt lat="28.3274877" lon="105.0607518"><ele>583.43</ele><time>2026-07-23T23:51:45.000Z</time></trkpt>
        <trkpt lat="28.327562" lon="105.0606944"><ele>581.03</ele><time>2026-07-23T23:52:01.000Z</time></trkpt>
        <trkpt lat="28.3276487" lon="105.0606918"><ele>580.96</ele><time>2026-07-23T23:52:13.000Z</time></trkpt>
        <trkpt lat="28.3277321" lon="105.0606525"><ele>580.52</ele><time>2026-07-23T23:52:23.000Z</time></trkpt>
        <trkpt lat="28.3278107" lon="105.0605984"><ele>579.99</ele><time>2026-07-23T23:52:33.000Z</time></trkpt>
        <trkpt lat="28.3278783" lon="105.0605153"><ele>578.51</ele><time>2026-07-23T23:52:43.000Z</time></trkpt>
        <trkpt lat="28.3279179" lon="105.0604073"><ele>576.19</ele><time>2026-07-23T23:52:53.000Z</time></trkpt>
        <trkpt lat="28.3279737" lon="105.0603075"><ele>573.78</ele><time>2026-07-23T23:53:03.000Z</time></trkpt>
        <trkpt lat="28.3280446" lon="105.0602353"><ele>572.32</ele><time>2026-07-23T23:53:13.000Z</time></trkpt>
        <trkpt lat="28.3281388" lon="105.060217"><ele>569.11</ele><time>2026-07-23T23:53:23.000Z</time></trkpt>
        <trkpt lat="28.3282267" lon="105.0602748"><ele>568.42</ele><time>2026-07-23T23:53:35.000Z</time></trkpt>
        <trkpt lat="28.3283279" lon="105.0603091"><ele>569.63</ele><time>2026-07-23T23:53:47.000Z</time></trkpt>
        <trkpt lat="28.3284149" lon="105.0603647"><ele>570.43</ele><time>2026-07-23T23:53:57.000Z</time></trkpt>
        <trkpt lat="28.3285063" lon="105.0603956"><ele>569.48</ele><time>2026-07-23T23:54:07.000Z</time></trkpt>
        <trkpt lat="28.3285864" lon="105.0603582"><ele>568.04</ele><time>2026-07-23T23:54:17.000Z</time></trkpt>
        <trkpt lat="28.3286432" lon="105.0602738"><ele>566.13</ele><time>2026-07-23T23:54:27.000Z</time></trkpt>
        <trkpt lat="28.3287334" lon="105.0602268"><ele>563.22</ele><time>2026-07-23T23:54:33.000Z</time></trkpt>
        <trkpt lat="28.3288244" lon="105.0601957"><ele>561.08</ele><time>2026-07-23T23:54:41.000Z</time></trkpt>
        <trkpt lat="28.3289165" lon="105.0601811"><ele>558.77</ele><time>2026-07-23T23:54:49.000Z</time></trkpt>
        <trkpt lat="28.3290007" lon="105.0601359"><ele>557.43</ele><time>2026-07-23T23:54:59.000Z</time></trkpt>
        <trkpt lat="28.3290922" lon="105.0601192"><ele>557.55</ele><time>2026-07-23T23:55:09.000Z</time></trkpt>
        <trkpt lat="28.3291877" lon="105.0601093"><ele>557.51</ele><time>2026-07-23T23:55:19.000Z</time></trkpt>
        <trkpt lat="28.3292931" lon="105.0601123"><ele>558.46</ele><time>2026-07-23T23:55:29.000Z</time></trkpt>
        <trkpt lat="28.3293999" lon="105.0601048"><ele>558.53</ele><time>2026-07-23T23:55:39.000Z</time></trkpt>
        <trkpt lat="28.3294962" lon="105.0600888"><ele>559.57</ele><time>2026-07-23T23:55:49.000Z</time></trkpt>
        <trkpt lat="28.3295901" lon="105.0600702"><ele>559.86</ele><time>2026-07-23T23:56:01.000Z</time></trkpt>
        <trkpt lat="28.3296787" lon="105.0600479"><ele>558.63</ele><time>2026-07-23T23:56:11.000Z</time></trkpt>
        <trkpt lat="28.3297714" lon="105.0600231"><ele>557.92</ele><time>2026-07-23T23:56:27.000Z</time></trkpt>
        <trkpt lat="28.3298617" lon="105.0599664"><ele>557.09</ele><time>2026-07-23T23:56:39.000Z</time></trkpt>
        <trkpt lat="28.3299336" lon="105.0598952"><ele>554.04</ele><time>2026-07-23T23:56:49.000Z</time></trkpt>
        <trkpt lat="28.3300123" lon="105.0598313"><ele>551.78</ele><time>2026-07-23T23:56:59.000Z</time></trkpt>
        <trkpt lat="28.330076" lon="105.0597564"><ele>549.73</ele><time>2026-07-23T23:57:09.000Z</time></trkpt>
        <trkpt lat="28.3301322" lon="105.0596656"><ele>548.18</ele><time>2026-07-23T23:57:21.000Z</time></trkpt>
        <trkpt lat="28.3301883" lon="105.0595794"><ele>546.72</ele><time>2026-07-23T23:57:31.000Z</time></trkpt>
        <trkpt lat="28.3302257" lon="105.0594803"><ele>546.47</ele><time>2026-07-23T23:57:41.000Z</time></trkpt>
        <trkpt lat="28.3302717" lon="105.059385"><ele>545.95</ele><time>2026-07-23T23:57:51.000Z</time></trkpt>
        <trkpt lat="28.3303215" lon="105.0592955"><ele>545.94</ele><time>2026-07-23T23:58:05.000Z</time></trkpt>
        <trkpt lat="28.3303708" lon="105.059205"><ele>547.34</ele><time>2026-07-23T23:58:19.000Z</time></trkpt>
        <trkpt lat="28.3304257" lon="105.0591146"><ele>548.21</ele><time>2026-07-23T23:58:31.000Z</time></trkpt>
        <trkpt lat="28.3304887" lon="105.05902"><ele>549.34</ele><time>2026-07-23T23:58:43.000Z</time></trkpt>
        <trkpt lat="28.3305682" lon="105.0589574"><ele>552.35</ele><time>2026-07-23T23:58:53.000Z</time></trkpt>
        <trkpt lat="28.3306435" lon="105.058896"><ele>552.95</ele><time>2026-07-23T23:59:03.000Z</time></trkpt>
        <trkpt lat="28.3307384" lon="105.0588783"><ele>551.34</ele><time>2026-07-23T23:59:17.000Z</time></trkpt>
        <trkpt lat="28.3308424" lon="105.0588718"><ele>552.72</ele><time>2026-07-23T23:59:31.000Z</time></trkpt>
        <trkpt lat="28.3309341" lon="105.058839"><ele>552.79</ele><time>2026-07-23T23:59:41.000Z</time></trkpt>
        <trkpt lat="28.3310318" lon="105.0587996"><ele>551.1</ele><time>2026-07-23T23:59:51.000Z</time></trkpt>
        <trkpt lat="28.3311325" lon="105.0587698"><ele>549.21</ele><time>2026-07-24T00:00:01.000Z</time></trkpt>
        <trkpt lat="28.331229" lon="105.0587671"><ele>547.34</ele><time>2026-07-24T00:00:11.000Z</time></trkpt>
        <trkpt lat="28.331325" lon="105.0587622"><ele>547.4</ele><time>2026-07-24T00:00:23.000Z</time></trkpt>
        <trkpt lat="28.3314132" lon="105.0587261"><ele>547.55</ele><time>2026-07-24T00:00:37.000Z</time></trkpt>
        <trkpt lat="28.3314686" lon="105.0586459"><ele>545.09</ele><time>2026-07-24T00:00:51.000Z</time></trkpt>
        <trkpt lat="28.3315172" lon="105.0586824"><ele>541.51</ele><time>2026-07-24T00:01:19.000Z</time></trkpt>
        <trkpt lat="28.331557" lon="105.0586152"><ele>540.91</ele><time>2026-07-24T00:01:27.000Z</time></trkpt>
        <trkpt lat="28.3316311" lon="105.0585448"><ele>536.97</ele><time>2026-07-24T00:01:35.000Z</time></trkpt>
        <trkpt lat="28.3317311" lon="105.0585118"><ele>534.76</ele><time>2026-07-24T00:01:49.000Z</time></trkpt>
        <trkpt lat="28.3318311" lon="105.0585005"><ele>533.74</ele><time>2026-07-24T00:02:01.000Z</time></trkpt>
        <trkpt lat="28.3319011" lon="105.0585264"><ele>531.19</ele><time>2026-07-24T00:02:13.000Z</time></trkpt>
        <trkpt lat="28.3319901" lon="105.0585271"><ele>529.8</ele><time>2026-07-24T00:03:21.000Z</time></trkpt>
        <trkpt lat="28.3320831" lon="105.0585516"><ele>528.36</ele><time>2026-07-24T00:06:53.000Z</time></trkpt>
        <trkpt lat="28.332184" lon="105.0585693"><ele>527.1</ele><time>2026-07-24T00:07:14.000Z</time></trkpt>
        <trkpt lat="28.3322849" lon="105.0585418"><ele>526.68</ele><time>2026-07-24T00:07:48.000Z</time></trkpt>
        <trkpt lat="28.3323868" lon="105.0585397"><ele>526.1</ele><time>2026-07-24T00:08:00.000Z</time></trkpt>
        <trkpt lat="28.3324632" lon="105.0585918"><ele>524.03</ele><time>2026-07-24T00:08:10.000Z</time></trkpt>
        <trkpt lat="28.3325404" lon="105.0585597"><ele>521.77</ele><time>2026-07-24T00:08:18.000Z</time></trkpt>
        <trkpt lat="28.3326354" lon="105.0585157"><ele>520.6</ele><time>2026-07-24T00:08:28.000Z</time></trkpt>
        <trkpt lat="28.3327298" lon="105.0584596"><ele>518.72</ele><time>2026-07-24T00:08:34.000Z</time></trkpt>
        <trkpt lat="28.3327293" lon="105.0584076"><ele>516.8</ele><time>2026-07-24T00:08:40.000Z</time></trkpt>
        <trkpt lat="28.3327871" lon="105.0583679"><ele>510.45</ele><time>2026-07-24T00:08:58.000Z</time></trkpt>
        <trkpt lat="28.3327947" lon="105.0583348"><ele>507.19</ele><time>2026-07-24T00:09:00.000Z</time></trkpt>
        <trkpt lat="28.3327561" lon="105.0584072"><ele>504.13</ele><time>2026-07-24T00:09:10.000Z</time></trkpt>
        <trkpt lat="28.3327413" lon="105.0584447"><ele>502.47</ele><time>2026-07-24T00:09:12.000Z</time></trkpt>
        <trkpt lat="28.3327402" lon="105.0585372"><ele>501.5</ele><time>2026-07-24T00:09:28.000Z</time></trkpt>
        <trkpt lat="28.3327596" lon="105.0586589"><ele>499.6</ele><time>2026-07-24T00:09:52.000Z</time></trkpt>
        <trkpt lat="28.3327452" lon="105.0587819"><ele>498.28</ele><time>2026-07-24T00:10:08.000Z</time></trkpt>
        <trkpt lat="28.3327031" lon="105.0588818"><ele>495.86</ele><time>2026-07-24T00:10:26.000Z</time></trkpt>
        <trkpt lat="28.3326278" lon="105.0589533"><ele>497.82</ele><time>2026-07-24T00:10:46.000Z</time></trkpt>
        <trkpt lat="28.3325367" lon="105.0589955"><ele>495.03</ele><time>2026-07-24T00:11:00.000Z</time></trkpt>
        <trkpt lat="28.3318799" lon="105.0590854"><ele>492.64</ele><time>2026-07-24T00:12:27.000Z</time></trkpt>
        <trkpt lat="28.3318839" lon="105.059086"><ele>494.95</ele><time>2026-07-24T00:12:30.000Z</time></trkpt>
        <trkpt lat="28.3318898" lon="105.0590925"><ele>496.3</ele><time>2026-07-24T00:12:42.000Z</time></trkpt>
        <trkpt lat="28.3318745" lon="105.0590909"><ele>497.31</ele><time>2026-07-24T00:12:50.000Z</time></trkpt>
        <trkpt lat="28.3317988" lon="105.0591047"><ele>498.43</ele><time>2026-07-24T00:13:32.000Z</time></trkpt>
        <trkpt lat="28.3317395" lon="105.0590262"><ele>506.9</ele><time>2026-07-24T00:13:44.000Z</time></trkpt>
        <trkpt lat="28.3316379" lon="105.0590035"><ele>511.82</ele><time>2026-07-24T00:13:56.000Z</time></trkpt>
        <trkpt lat="28.3315306" lon="105.0589927"><ele>512.53</ele><time>2026-07-24T00:14:06.000Z</time></trkpt>
        <trkpt lat="28.3314206" lon="105.0589769"><ele>514.56</ele><time>2026-07-24T00:14:16.000Z</time></trkpt>
        <trkpt lat="28.3313184" lon="105.0589876"><ele>515.22</ele><time>2026-07-24T00:14:28.000Z</time></trkpt>
        <trkpt lat="28.3312136" lon="105.0590033"><ele>513.35</ele><time>2026-07-24T00:14:40.000Z</time></trkpt>
        <trkpt lat="28.3311134" lon="105.0590358"><ele>512.38</ele><time>2026-07-24T00:14:50.000Z</time></trkpt>
        <trkpt lat="28.3310218" lon="105.0590786"><ele>512.51</ele><time>2026-07-24T00:15:04.000Z</time></trkpt>
        <trkpt lat="28.3309654" lon="105.0591021"><ele>511.28</ele><time>2026-07-24T00:15:12.000Z</time></trkpt>
        <trkpt lat="28.3308915" lon="105.0591395"><ele>511.15</ele><time>2026-07-24T00:15:58.000Z</time></trkpt>
        <trkpt lat="28.3308146" lon="105.0591914"><ele>513.6</ele><time>2026-07-24T00:16:18.000Z</time></trkpt>
        <trkpt lat="28.3307441" lon="105.0591564"><ele>516.98</ele><time>2026-07-24T00:16:28.000Z</time></trkpt>
        <trkpt lat="28.3306598" lon="105.0591434"><ele>518.81</ele><time>2026-07-24T00:16:46.000Z</time></trkpt>
        <trkpt lat="28.3306306" lon="105.0592163"><ele>521.22</ele><time>2026-07-24T00:17:28.000Z</time></trkpt>
        <trkpt lat="28.3305674" lon="105.0592018"><ele>519.49</ele><time>2026-07-24T00:17:54.000Z</time></trkpt>
        <trkpt lat="28.3306521" lon="105.05926"><ele>517.38</ele><time>2026-07-24T00:27:12.000Z</time></trkpt>
        <trkpt lat="28.3307442" lon="105.0592734"><ele>528.57</ele><time>2026-07-24T00:27:42.000Z</time></trkpt>
        <trkpt lat="28.3308272" lon="105.0592075"><ele>534.25</ele><time>2026-07-24T00:29:14.000Z</time></trkpt>
        <trkpt lat="28.3309368" lon="105.0592374"><ele>535.24</ele><time>2026-07-24T00:30:42.000Z</time></trkpt>
        <trkpt lat="28.3310307" lon="105.0592333"><ele>524.94</ele><time>2026-07-24T00:30:54.000Z</time></trkpt>
        <trkpt lat="28.3311374" lon="105.0592494"><ele>517.02</ele><time>2026-07-24T00:31:22.000Z</time></trkpt>
        <trkpt lat="28.3312348" lon="105.059211"><ele>509.45</ele><time>2026-07-24T00:31:34.000Z</time></trkpt>
        <trkpt lat="28.3313277" lon="105.0591609"><ele>504.77</ele><time>2026-07-24T00:31:46.000Z</time></trkpt>
        <trkpt lat="28.33142" lon="105.0591505"><ele>500.83</ele><time>2026-07-24T00:31:56.000Z</time></trkpt>
        <trkpt lat="28.3315219" lon="105.059134"><ele>496.63</ele><time>2026-07-24T00:32:06.000Z</time></trkpt>
        <trkpt lat="28.3316217" lon="105.0591048"><ele>498.08</ele><time>2026-07-24T00:32:16.000Z</time></trkpt>
        <trkpt lat="28.3317201" lon="105.0591422"><ele>500.6</ele><time>2026-07-24T00:32:28.000Z</time></trkpt>
        <trkpt lat="28.3318074" lon="105.0591195"><ele>502.02</ele><time>2026-07-24T00:32:38.000Z</time></trkpt>
        <trkpt lat="28.331858" lon="105.0590344"><ele>501.54</ele><time>2026-07-24T00:32:54.000Z</time></trkpt>
        <trkpt lat="28.3318292" lon="105.0589246"><ele>504.82</ele><time>2026-07-24T00:33:04.000Z</time></trkpt>
        <trkpt lat="28.3318703" lon="105.0588433"><ele>506.54</ele><time>2026-07-24T00:33:56.000Z</time></trkpt>
        <trkpt lat="28.3319094" lon="105.0587402"><ele>512.27</ele><time>2026-07-24T00:34:14.000Z</time></trkpt>
        <trkpt lat="28.3319333" lon="105.058631"><ele>517.8</ele><time>2026-07-24T00:34:38.000Z</time></trkpt>
        <trkpt lat="28.3319575" lon="105.0585482"><ele>519.34</ele><time>2026-07-24T00:34:52.000Z</time></trkpt>
        <trkpt lat="28.3318658" lon="105.0585435"><ele>520.01</ele><time>2026-07-24T00:36:06.000Z</time></trkpt>
        <trkpt lat="28.3317797" lon="105.058477"><ele>521.3</ele><time>2026-07-24T00:36:18.000Z</time></trkpt>
        <trkpt lat="28.3316755" lon="105.0584775"><ele>522.11</ele><time>2026-07-24T00:36:30.000Z</time></trkpt>
        <trkpt lat="28.3315743" lon="105.0585"><ele>523.68</ele><time>2026-07-24T00:36:46.000Z</time></trkpt>
        <trkpt lat="28.3315027" lon="105.0585931"><ele>523.78</ele><time>2026-07-24T00:36:54.000Z</time></trkpt>
        <trkpt lat="28.3314308" lon="105.0586775"><ele>525.11</ele><time>2026-07-24T00:37:12.000Z</time></trkpt>
        <trkpt lat="28.331447" lon="105.0586296"><ele>525.78</ele><time>2026-07-24T00:37:24.000Z</time></trkpt>
        <trkpt lat="28.3313937" lon="105.0586092"><ele>525.92</ele><time>2026-07-24T00:37:46.000Z</time></trkpt>
        <trkpt lat="28.3313383" lon="105.0586724"><ele>528.21</ele><time>2026-07-24T00:38:04.000Z</time></trkpt>
        <trkpt lat="28.331259" lon="105.0587307"><ele>530.96</ele><time>2026-07-24T00:38:20.000Z</time></trkpt>
        <trkpt lat="28.3311604" lon="105.0587635"><ele>532.53</ele><time>2026-07-24T00:38:36.000Z</time></trkpt>
        <trkpt lat="28.3310607" lon="105.058774"><ele>535.11</ele><time>2026-07-24T00:38:48.000Z</time></trkpt>
        <trkpt lat="28.3309637" lon="105.0588013"><ele>537.96</ele><time>2026-07-24T00:39:00.000Z</time></trkpt>
        <trkpt lat="28.3308674" lon="105.0588175"><ele>540.6</ele><time>2026-07-24T00:39:12.000Z</time></trkpt>
        <trkpt lat="28.3307729" lon="105.0588433"><ele>544.52</ele><time>2026-07-24T00:39:26.000Z</time></trkpt>
        <trkpt lat="28.3306749" lon="105.0588504"><ele>546.73</ele><time>2026-07-24T00:39:38.000Z</time></trkpt>
        <trkpt lat="28.3305868" lon="105.0588875"><ele>549.01</ele><time>2026-07-24T00:39:48.000Z</time></trkpt>
        <trkpt lat="28.3305024" lon="105.0589584"><ele>550.86</ele><time>2026-07-24T00:39:58.000Z</time></trkpt>
        <trkpt lat="28.3304228" lon="105.0590446"><ele>552.95</ele><time>2026-07-24T00:40:08.000Z</time></trkpt>
        <trkpt lat="28.3303585" lon="105.0591435"><ele>554.37</ele><time>2026-07-24T00:40:18.000Z</time></trkpt>
        <trkpt lat="28.3303124" lon="105.059253"><ele>554.03</ele><time>2026-07-24T00:40:28.000Z</time></trkpt>
        <trkpt lat="28.3302615" lon="105.0593581"><ele>553.52</ele><time>2026-07-24T00:40:38.000Z</time></trkpt>
        <trkpt lat="28.3302095" lon="105.0594608"><ele>554.17</ele><time>2026-07-24T00:40:48.000Z</time></trkpt>
        <trkpt lat="28.3301542" lon="105.059566"><ele>554.47</ele><time>2026-07-24T00:40:58.000Z</time></trkpt>
        <trkpt lat="28.3300996" lon="105.059668"><ele>554.44</ele><time>2026-07-24T00:41:08.000Z</time></trkpt>
        <trkpt lat="28.3300339" lon="105.0597644"><ele>554.64</ele><time>2026-07-24T00:41:20.000Z</time></trkpt>
        <trkpt lat="28.3299614" lon="105.0598422"><ele>554.33</ele><time>2026-07-24T00:41:30.000Z</time></trkpt>
        <trkpt lat="28.3298795" lon="105.0598997"><ele>553.04</ele><time>2026-07-24T00:41:40.000Z</time></trkpt>
        <trkpt lat="28.3298015" lon="105.0599599"><ele>551.68</ele><time>2026-07-24T00:41:50.000Z</time></trkpt>
        <trkpt lat="28.3297111" lon="105.0600049"><ele>550.53</ele><time>2026-07-24T00:42:00.000Z</time></trkpt>
        <trkpt lat="28.3296936" lon="105.0601013"><ele>550.63</ele><time>2026-07-24T00:42:12.000Z</time></trkpt>
        <trkpt lat="28.3296418" lon="105.0601856"><ele>551.55</ele><time>2026-07-24T00:42:24.000Z</time></trkpt>
        <trkpt lat="28.3295603" lon="105.0601905"><ele>550.31</ele><time>2026-07-24T00:42:38.000Z</time></trkpt>
        <trkpt lat="28.3294683" lon="105.0602219"><ele>549.89</ele><time>2026-07-24T00:43:20.000Z</time></trkpt>
        <trkpt lat="28.3293631" lon="105.0602314"><ele>550.84</ele><time>2026-07-24T00:43:34.000Z</time></trkpt>
        <trkpt lat="28.3292646" lon="105.0602267"><ele>551.38</ele><time>2026-07-24T00:43:44.000Z</time></trkpt>
        <trkpt lat="28.32918" lon="105.0602699"><ele>552.54</ele><time>2026-07-24T00:43:56.000Z</time></trkpt>
        <trkpt lat="28.3290927" lon="105.0603267"><ele>553.59</ele><time>2026-07-24T00:44:10.000Z</time></trkpt>
        <trkpt lat="28.3290014" lon="105.0603778"><ele>554.34</ele><time>2026-07-24T00:44:20.000Z</time></trkpt>
        <trkpt lat="28.3289222" lon="105.0604421"><ele>556.23</ele><time>2026-07-24T00:44:30.000Z</time></trkpt>
        <trkpt lat="28.3288821" lon="105.0605402"><ele>557.08</ele><time>2026-07-24T00:44:48.000Z</time></trkpt>
        <trkpt lat="28.328813" lon="105.060524"><ele>559.13</ele><time>2026-07-24T00:44:58.000Z</time></trkpt>
        <trkpt lat="28.3288046" lon="105.0605876"><ele>561.1</ele><time>2026-07-24T00:45:14.000Z</time></trkpt>
        <trkpt lat="28.3287392" lon="105.0606225"><ele>563.8</ele><time>2026-07-24T00:45:38.000Z</time></trkpt>
        <trkpt lat="28.3286864" lon="105.0606972"><ele>567.12</ele><time>2026-07-24T00:45:50.000Z</time></trkpt>
        <trkpt lat="28.3286743" lon="105.0607979"><ele>569.82</ele><time>2026-07-24T00:46:08.000Z</time></trkpt>
        <trkpt lat="28.3287436" lon="105.0608501"><ele>574.55</ele><time>2026-07-24T00:46:24.000Z</time></trkpt>
        <trkpt lat="28.3287867" lon="105.0609392"><ele>580.51</ele><time>2026-07-24T00:47:02.000Z</time></trkpt>
        <trkpt lat="28.3288417" lon="105.0610319"><ele>585.01</ele><time>2026-07-24T00:47:22.000Z</time></trkpt>
        <trkpt lat="28.3288317" lon="105.061129"><ele>589.88</ele><time>2026-07-24T00:47:34.000Z</time></trkpt>
        <trkpt lat="28.3287915" lon="105.0612447"><ele>593.94</ele><time>2026-07-24T00:52:30.000Z</time></trkpt>
        <trkpt lat="28.3287156" lon="105.0613118"><ele>597.98</ele><time>2026-07-24T00:52:40.000Z</time></trkpt>
        <trkpt lat="28.3286315" lon="105.0613722"><ele>602.21</ele><time>2026-07-24T00:52:50.000Z</time></trkpt>
        <trkpt lat="28.3285557" lon="105.0614559"><ele>606.24</ele><time>2026-07-24T00:53:00.000Z</time></trkpt>
        <trkpt lat="28.328463" lon="105.0615129"><ele>609.06</ele><time>2026-07-24T00:53:12.000Z</time></trkpt>
        <trkpt lat="28.3283803" lon="105.0615674"><ele>610.53</ele><time>2026-07-24T00:53:20.000Z</time></trkpt>
        <trkpt lat="28.3283081" lon="105.061649"><ele>611.01</ele><time>2026-07-24T00:53:28.000Z</time></trkpt>
        <trkpt lat="28.3282563" lon="105.0617469"><ele>612.08</ele><time>2026-07-24T00:53:36.000Z</time></trkpt>
        <trkpt lat="28.3281845" lon="105.0618148"><ele>613.82</ele><time>2026-07-24T00:53:44.000Z</time></trkpt>
        <trkpt lat="28.3280851" lon="105.0618424"><ele>614.46</ele><time>2026-07-24T00:53:52.000Z</time></trkpt>
        <trkpt lat="28.3280804" lon="105.0619225"><ele>615.95</ele><time>2026-07-24T00:54:02.000Z</time></trkpt>
        <trkpt lat="28.3280222" lon="105.0619607"><ele>618.8</ele><time>2026-07-24T00:54:12.000Z</time></trkpt>
        <trkpt lat="28.3279687" lon="105.0620466"><ele>621.95</ele><time>2026-07-24T00:54:26.000Z</time></trkpt>
        <trkpt lat="28.3279319" lon="105.0621498"><ele>625.82</ele><time>2026-07-24T00:54:46.000Z</time></trkpt>
        <trkpt lat="28.3279553" lon="105.0622573"><ele>630.58</ele><time>2026-07-24T00:55:06.000Z</time></trkpt>
        <trkpt lat="28.3279864" lon="105.0623653"><ele>634.47</ele><time>2026-07-24T00:55:22.000Z</time></trkpt>
        <trkpt lat="28.3279357" lon="105.062422"><ele>638.62</ele><time>2026-07-24T00:55:32.000Z</time></trkpt>
        <trkpt lat="28.327852" lon="105.0624763"><ele>642.03</ele><time>2026-07-24T00:55:42.000Z</time></trkpt>
        <trkpt lat="28.3277942" lon="105.0625637"><ele>643.97</ele><time>2026-07-24T00:55:52.000Z</time></trkpt>
        <trkpt lat="28.3277623" lon="105.062663"><ele>644.4</ele><time>2026-07-24T00:56:00.000Z</time></trkpt>
        <trkpt lat="28.3277402" lon="105.062766"><ele>644.24</ele><time>2026-07-24T00:56:08.000Z</time></trkpt>
        <trkpt lat="28.3277108" lon="105.0628651"><ele>644.2</ele><time>2026-07-24T00:56:16.000Z</time></trkpt>
        <trkpt lat="28.3276661" lon="105.0629646"><ele>644.34</ele><time>2026-07-24T00:56:26.000Z</time></trkpt>
        <trkpt lat="28.3276318" lon="105.0630807"><ele>644.3</ele><time>2026-07-24T00:56:36.000Z</time></trkpt>
        <trkpt lat="28.3276152" lon="105.0632024"><ele>644.67</ele><time>2026-07-24T00:56:46.000Z</time></trkpt>
        <trkpt lat="28.3275614" lon="105.0632966"><ele>645.02</ele><time>2026-07-24T00:56:56.000Z</time></trkpt>
        <trkpt lat="28.3275" lon="105.0633894"><ele>645.28</ele><time>2026-07-24T00:57:06.000Z</time></trkpt>
        <trkpt lat="28.3274439" lon="105.0634772"><ele>645.79</ele><time>2026-07-24T00:57:16.000Z</time></trkpt>
        <trkpt lat="28.327462" lon="105.0635687"><ele>645.5</ele><time>2026-07-24T00:57:32.000Z</time></trkpt>
        <trkpt lat="28.3275225" lon="105.0636535"><ele>645.29</ele><time>2026-07-24T00:57:46.000Z</time></trkpt>
        <trkpt lat="28.3276054" lon="105.0636278"><ele>645.6</ele><time>2026-07-24T00:58:00.000Z</time></trkpt>
        <trkpt lat="28.3277038" lon="105.0636033"><ele>646.49</ele><time>2026-07-24T00:58:16.000Z</time></trkpt>
        <trkpt lat="28.3278077" lon="105.0635659"><ele>648.41</ele><time>2026-07-24T00:58:32.000Z</time></trkpt>
        <trkpt lat="28.3279056" lon="105.0635571"><ele>650.24</ele><time>2026-07-24T00:58:44.000Z</time></trkpt>
        <trkpt lat="28.328003" lon="105.0635656"><ele>651.76</ele><time>2026-07-24T00:58:54.000Z</time></trkpt>
        <trkpt lat="28.3280771" lon="105.0636369"><ele>652.55</ele><time>2026-07-24T00:59:04.000Z</time></trkpt>
        <trkpt lat="28.3281306" lon="105.0637416"><ele>653.56</ele><time>2026-07-24T00:59:14.000Z</time></trkpt>
        <trkpt lat="28.3281904" lon="105.0638371"><ele>654.01</ele><time>2026-07-24T00:59:22.000Z</time></trkpt>
        <trkpt lat="28.3282617" lon="105.0639193"><ele>653.99</ele><time>2026-07-24T00:59:30.000Z</time></trkpt>
        <trkpt lat="28.3283318" lon="105.0639938"><ele>654.17</ele><time>2026-07-24T00:59:38.000Z</time></trkpt>
        <trkpt lat="28.3283892" lon="105.0640778"><ele>654.56</ele><time>2026-07-24T00:59:46.000Z</time></trkpt>
        <trkpt lat="28.3283768" lon="105.0641779"><ele>655.51</ele><time>2026-07-24T00:59:56.000Z</time></trkpt>
        <trkpt lat="28.3283434" lon="105.0642839"><ele>655.92</ele><time>2026-07-24T01:00:06.000Z</time></trkpt>
        <trkpt lat="28.328258" lon="105.0643535"><ele>656.66</ele><time>2026-07-24T01:00:16.000Z</time></trkpt>
        <trkpt lat="28.3281806" lon="105.0644422"><ele>657.38</ele><time>2026-07-24T01:00:26.000Z</time></trkpt>
        <trkpt lat="28.3281094" lon="105.0645287"><ele>657.6</ele><time>2026-07-24T01:00:34.000Z</time></trkpt>
        <trkpt lat="28.328017" lon="105.0645802"><ele>658.9</ele><time>2026-07-24T01:00:44.000Z</time></trkpt>
        <trkpt lat="28.3279023" lon="105.0646009"><ele>659.67</ele><time>2026-07-24T01:00:54.000Z</time></trkpt>
        <trkpt lat="28.3277983" lon="105.0646509"><ele>661.37</ele><time>2026-07-24T01:01:04.000Z</time></trkpt>
        <trkpt lat="28.3277171" lon="105.0647102"><ele>661.97</ele><time>2026-07-24T01:01:12.000Z</time></trkpt>
        <trkpt lat="28.327661" lon="105.0647975"><ele>662.4</ele><time>2026-07-24T01:01:20.000Z</time></trkpt>
        <trkpt lat="28.3276096" lon="105.0648923"><ele>662.42</ele><time>2026-07-24T01:01:26.000Z</time></trkpt>
        <trkpt lat="28.3275491" lon="105.0649919"><ele>663.52</ele><time>2026-07-24T01:01:36.000Z</time></trkpt>
        <trkpt lat="28.3274664" lon="105.0650207"><ele>664.53</ele><time>2026-07-24T01:01:48.000Z</time></trkpt>
        <trkpt lat="28.3273884" lon="105.0650663"><ele>664.21</ele><time>2026-07-24T01:01:58.000Z</time></trkpt>
        <trkpt lat="28.3272933" lon="105.065095"><ele>664.79</ele><time>2026-07-24T01:02:10.000Z</time></trkpt>
        <trkpt lat="28.3272338" lon="105.0651666"><ele>665.75</ele><time>2026-07-24T01:02:18.000Z</time></trkpt>
        <trkpt lat="28.3271876" lon="105.0652676"><ele>666.28</ele><time>2026-07-24T01:02:30.000Z</time></trkpt>
        <trkpt lat="28.3271115" lon="105.0653284"><ele>666.65</ele><time>2026-07-24T01:02:42.000Z</time></trkpt>
        <trkpt lat="28.32704" lon="105.065406"><ele>667.98</ele><time>2026-07-24T01:02:52.000Z</time></trkpt>
        <trkpt lat="28.3270315" lon="105.0655169"><ele>669.13</ele><time>2026-07-24T01:03:04.000Z</time></trkpt>
        <trkpt lat="28.3270236" lon="105.0656369"><ele>670.77</ele><time>2026-07-24T01:03:16.000Z</time></trkpt>
        <trkpt lat="28.3270264" lon="105.0657503"><ele>673.4</ele><time>2026-07-24T01:03:26.000Z</time></trkpt>
        <trkpt lat="28.3270335" lon="105.0658581"><ele>675.15</ele><time>2026-07-24T01:03:36.000Z</time></trkpt>
        <trkpt lat="28.3270622" lon="105.0659633"><ele>676.07</ele><time>2026-07-24T01:03:51.000Z</time></trkpt>
        <trkpt lat="28.3270927" lon="105.0660789"><ele>676.2</ele><time>2026-07-24T01:04:11.000Z</time></trkpt>
        <trkpt lat="28.3271129" lon="105.0661908"><ele>675.24</ele><time>2026-07-24T01:04:21.000Z</time></trkpt>
        <trkpt lat="28.3271211" lon="105.0663002"><ele>674.79</ele><time>2026-07-24T01:04:31.000Z</time></trkpt>
        <trkpt lat="28.3271131" lon="105.066363"><ele>674.64</ele><time>2026-07-24T01:04:39.000Z</time></trkpt>
        <trkpt lat="28.3270396" lon="105.066343"><ele>674.22</ele><time>2026-07-24T01:04:51.000Z</time></trkpt>
        <trkpt lat="28.3269326" lon="105.0662928"><ele>673.98</ele><time>2026-07-24T01:05:05.000Z</time></trkpt>
        <trkpt lat="28.3268536" lon="105.0662768"><ele>674.51</ele><time>2026-07-24T01:05:15.000Z</time></trkpt>
        <trkpt lat="28.326812" lon="105.0661983"><ele>676.11</ele><time>2026-07-24T01:05:57.000Z</time></trkpt>
        <trkpt lat="28.3267847" lon="105.0660896"><ele>676.82</ele><time>2026-07-24T01:06:17.000Z</time></trkpt>
        <trkpt lat="28.3267683" lon="105.0659768"><ele>678.16</ele><time>2026-07-24T01:06:27.000Z</time></trkpt>
        <trkpt lat="28.3267688" lon="105.0658534"><ele>679.28</ele><time>2026-07-24T01:06:39.000Z</time></trkpt>
        <trkpt lat="28.3267789" lon="105.0657419"><ele>680.53</ele><time>2026-07-24T01:06:49.000Z</time></trkpt>
        <trkpt lat="28.326784" lon="105.0656315"><ele>681.58</ele><time>2026-07-24T01:06:59.000Z</time></trkpt>
        <trkpt lat="28.3267843" lon="105.0655212"><ele>683.24</ele><time>2026-07-24T01:07:11.000Z</time></trkpt>
        <trkpt lat="28.3267843" lon="105.0655212"><ele>683.24</ele><time>2026-07-24T01:08:30.000Z</time></trkpt>
      </trkseg>
  </trk>
</gpx>